Prochaines Courses

Connexion

6 Miles

 

 

6 Miles Pont de Briques du 02/02/14 (Reelle 9,36)
Rang Dossard Nom Prénom Temps Cat Rang Cat Ecart Ecart Cat Club Vitesse Km/h Temps au Km
1 727 CAILLIAU THOMAS 00:31:41 SEM 1 00:00:00 00:00:00 O.G.S. 17,725 03:23
2 526 MONTADOR NICOLAS 00:31:41 SEM 2 00:00:00 00:00:00 ATHLETISME CLUB OUTREAU 17,725 03:23
3 772 BAROUX NICOLAS 00:31:50 SEM 3 00:00:09 00:00:09 NON LICENCIE 17,642 03:24
4 908 RAMET BENOIT 00:32:15 SEM 4 00:00:34 00:00:34 TOUQUET OPALE ATHLETISME 17,414 03:27
5 252 BOULOGNE JEREMY 00:32:58 V1M 1 00:01:17 00:00:00 AC AUDOMAROIS 17,035 03:31
6 555 PICHONNIER GUILLAUME 00:33:22 SEM 5 00:01:41 00:01:41 ATHLETISME CLUB OUTREAU 16,831 03:34
7 189 LORIDAN LUDOVIC 00:33:35 SEM 6 00:01:54 00:01:54 COURIR A GRAVELINES 16,723 03:35
8 377 LE CLERE ANTHONY 00:33:59 SEM 7 00:02:18 00:02:18 TOUQUET OPALE ATHLETISME 16,526 03:38
9 170 CREUNET MIGUEL 00:34:01 V1M 2 00:02:20 00:01:03 OPALE TRAIL NATURE 16,510 03:38
10 30 DELEBECQUE OLIVIER 00:34:04 V1M 3 00:02:23 00:01:06 O.S. AIRE 16,485 03:38
11 712 KUSCHNICK PHILIPPE 00:34:06 V1M 4 00:02:25 00:01:08 CAP OPALE 16,469 03:39
12 353 LECARDONNEL AXEL 00:34:22 JUM 1 00:02:41 00:00:00 CLUB ATHLE. COUDEKERQUE-B 16,341 03:40
13 1 GUILBERT HERVE 00:34:31 V2M 1 00:02:50 00:00:00 R.C ARRAS 16,270 03:41
14 656 BRUNET MICKAEL 00:34:40 SEM 8 00:02:59 00:02:59 BLANC NEZ TRIATHLON 16,200 03:42
15 296 THIBAULT NICOLAS 00:34:41 SEM 9 00:03:00 00:03:00 TOUQUET OPALE ATHLETISME 16,192 03:42
16 872 ARRAS MOHAMED 00:34:42 V1M 5 00:03:01 00:01:44 NOISY LE GRAND GA 16,184 03:42
17 896 DEBETTE FLORIAN 00:34:49 SEM 10 00:03:08 00:03:08 NON LICENCIE 16,130 03:43
18 798 CLEMENT DAMIEN 00:34:54 SEM 11 00:03:13 00:03:13 NON LICENCIE 16,092 03:44
19 885 MENUGE ANTHONY 00:34:55 SEM 12 00:03:14 00:03:14 NON LICENCIE 16,084 03:44
20 899 DEVOS YANN 00:35:10 SEM 13 00:03:29 00:03:29 NON LICENCIE 15,970 03:45
21 567 BALAIR TONY 00:35:12 SEM 14 00:03:31 00:03:31 ATHLETISME CLUB OUTREAU 15,955 03:46
22 53 MATRINGHEN TONY 00:35:13 SEM 15 00:03:32 00:03:32 TRIATHLON CLUB BOULONNAIS 15,947 03:46
23 690 SERGENT ROMUALD 00:35:17 SEM 16 00:03:36 00:03:36 TEAM TRAIL 62 15,917 03:46
24 569 BEAUMONT DENIS 00:35:20 V1M 6 00:03:39 00:02:22 ATHLETISME CLUB OUTREAU 15,894 03:46
25 648 JOIRE TANGUY 00:35:37 SEM 17 00:03:56 00:03:56 PATRIOTES DE GUINES 15,768 03:48
26 817 BOUTILLIER GUILLAUME 00:35:41 SEM 18 00:04:00 00:04:00 ROUEN TRIATHLON 15,738 03:49
27 748 LEFEBVRE ALEXIS 00:35:49 SEM 19 00:04:08 00:04:08 NON LICENCIE 15,680 03:50
28 546 MILLE SEBASTIEN 00:35:50 SEM 20 00:04:09 00:04:09 TRIATHLON CLUB BOULONNAIS 15,673 03:50
29 481 DUFOUR FABRICE 00:35:51 SEM 21 00:04:10 00:04:10 NON LICENCIE 15,665 03:50
30 589 DESACHY DAVID 00:35:51 V1M 7 00:04:10 00:02:53 ATHLETISME CLUB OUTREAU 15,665 03:50
31 213 DUCROQ MARC ANTOINE 00:35:53 SEM 22 00:04:12 00:04:12 NON LICENCIE 15,651 03:50
32 334 LOEUILLIEUX STEPHANE 00:35:55 V1M 8 00:04:14 00:02:57 TEAM TRAIL 62 15,636 03:50
33 73 GOURLET CEDRIC 00:35:56 SEM 23 00:04:15 00:04:15 Gravelines Triathlon 15,629 03:50
34 565 SUEUR LOIC 00:35:57 SEM 24 00:04:16 00:04:16 ATHLETISME CLUB OUTREAU 15,622 03:50
35 322 DUCLOY KEVIN 00:36:02 SEM 25 00:04:21 00:04:21 SAINT MARTIN ATHLETISME 15,586 03:51
36 129 BRUNEL JEAN-FRANCOIS 00:36:03 V1M 9 00:04:22 00:03:05 SAINT MARTIN ATHLETISME 15,578 03:51
37 692 GRESSIER OLIVIER 00:36:07 V1M 10 00:04:26 00:03:09 TEAM TRAIL 62 15,550 03:52
38 840 REMBUR DANIEL 00:36:08 V2M 2 00:04:27 00:01:37 TOUQUET OPALE ATHLETISME 15,542 03:52
39 71 QUENUT LAURENT 00:36:08 V1M 11 00:04:27 00:03:10 O.S. AIRE 15,542 03:52
40 254 LACROIX JEREME 00:36:11 SEM 26 00:04:30 00:04:30 TRIATHLON CLUB LIEVIN 15,521 03:52
41 27 MARYNIAK WILLIAM 00:36:13 SEM 27 00:04:32 00:04:32 ETAPLES TRIATHLON 15,507 03:52
42 350 RENAUX FREDERIC 00:36:17 SEM 28 00:04:36 00:04:36 BLANC NEZ TRIATHLON 15,478 03:53
43 835 GOURDIN ERIC 00:36:20 V1M 12 00:04:39 00:03:22 ESCAP'AVENTURE 15,457 03:53
44 196 SBARDELLA FRANCOIS 00:36:26 SEM 29 00:04:45 00:04:45 BLANC NEZ TRIATHLON 15,414 03:54
45 950 CALOIN MATHIEU 00:36:27 SEM 30 00:04:46 00:04:46 TOUQUET OPALE ATHLETISME 15,407 03:54
46 579 COPPIN NICOLAS 00:36:29 V1M 13 00:04:48 00:03:31 ATHLETISME CLUB OUTREAU 15,393 03:54
47 513 MORIN AYMERIC 00:36:36 SEM 31 00:04:55 00:04:55 WIMEREUX RUNNING CLUB 15,344 03:55
48 138 MAQUINGHEN CHRISTOPHE 00:36:36 SEM 32 00:04:55 00:04:55 SAINT MARTIN ATHLETISME 15,344 03:55
49 404 DEPLECHIN DAVID 00:36:42 SEM 33 00:05:01 00:05:01 NON LICENCIE 15,302 03:55
50 722 LEGRAND OLIVIER 00:36:43 V1M 14 00:05:02 00:03:45 ATHLETISME CLUB OUTREAU 15,296 03:55
51 674 MAYE BRUNO 00:36:44 V2M 3 00:05:03 00:02:13 O.S. AIRE 15,289 03:55
52 563 ROSE FREDERIC 00:36:45 V1M 15 00:05:04 00:03:47 ATHLETISME CLUB OUTREAU 15,282 03:56
53 523 MASCOT GREGORY 00:36:47 V1M 16 00:05:06 00:03:49 TRIATHLON CLUB BOULONNAIS 15,268 03:56
54 142 SAUNEUF PHILIPPE 00:36:49 V1M 17 00:05:08 00:03:51 SAINT MARTIN ATHLETISME 15,254 03:56
55 658 LEROY ANTOINE 00:36:50 SEM 34 00:05:09 00:05:09 DOUBS SUD ATHLETISME BESANCON 15,247 03:56
56 831 CHAVATTE VALENTIN 00:36:50 SEM 35 00:05:09 00:05:09 TOUQUET ATHLETIQUE CLUB 15,247 03:56
57 464 WILLER FRANCOIS 00:36:54 V1M 18 00:05:13 00:03:56 TOUQUET OPALE ATHLETISME 15,220 03:57
58 641 CARBONNIER MICHEL 00:37:07 V1M 19 00:05:26 00:04:09 PATRIOTES DE GUINES 15,131 03:58
59 233 LEFEVRE KEVIN 00:37:10 SEM 36 00:05:29 00:05:29 ATHLETISME CLUB OUTREAU 15,110 03:58
60 442 CANU LAURENT 00:37:11 V1M 20 00:05:30 00:04:13 ARC INTERNATIONAL 15,104 03:58
61 475 VIGREUX JEROME 00:37:26 SEM 37 00:05:45 00:05:45   15,003 04:00
62 264 DELEZENNE PASCAL 00:37:30 V2M 4 00:05:49 00:02:59 NON LICENCIE 14,976 04:00
63 364 LEPRETRE CYRILLE 00:37:30 SEM 38 00:05:49 00:05:49 LE DRAPEAU 14,976 04:00
64 411 CHAUCHOY LOIC 00:37:30 SEM 39 00:05:49 00:05:49 COLEMBERT 14,976 04:00
65 373 WACOGNE MICHAEL 00:37:32 SEM 40 00:05:51 00:05:51 TOUQUET OPALE ATHLETISME 14,963 04:01
66 56 PRUVOT ROMAIN 00:37:35 SEM 41 00:05:54 00:05:54 TOUQUET OPALE ATHLETISME 14,943 04:01
67 552 PAQUES CHRISTOPHE 00:37:36 V1M 21 00:05:55 00:04:38 ATHLETISME CLUB OUTREAU 14,936 04:01
68 573 BOULY JEROME 00:37:37 V1M 22 00:05:56 00:04:39 ATHLETISME CLUB OUTREAU 14,930 04:01
69 7 DOCQUOIS FREDERIC 00:37:44 V1M 23 00:06:03 00:04:46 LE DRAPEAU 14,883 04:02
70 737 DELGRANGE Daniel 00:37:45 V2M 5 00:06:04 00:03:14 O.S. AIRE 14,877 04:02
71 348 LELEU WILLY 00:37:45 V1M 24 00:06:04 00:04:47 NON LICENCIE 14,877 04:02
72 432 PRUVOST ALEXANDRE 00:37:48 SEM 42 00:06:07 00:06:07 O.S. AIRE 14,857 04:02
73 698 HODIQUE HERVE 00:37:50 V1M 25 00:06:09 00:04:52 TEAM TRAIL 62 14,844 04:03
74 860 LOUVRIE DIDIER 00:37:51 V3M 1 00:06:10 00:00:00 TOA 14,838 04:03
75 203 VANDEWALLE THOMAS 00:37:52 SEM 43 00:06:11 00:06:11 NON LICENCIE 14,831 04:03
76 554 POIRET GEORGES 00:37:54 V1M 26 00:06:13 00:04:56 ATHLETISME CLUB OUTREAU 14,818 04:03
77 354 DEGARDIN LAURENT 00:37:56 V1M 27 00:06:15 00:04:58 ETAPLES TRIATHLON 14,805 04:03
78 861 RAMET BRICE 00:37:59 SEM 44 00:06:18 00:06:18 SCA ABBEVILLE 14,785 04:03
79 928 SEILLIER ADRIEN 00:37:59 SEM 45 00:06:18 00:06:18 BOULOGNE CANOE KAYAK 14,785 04:03
80 227 RAY SAMUEL 00:38:03 V1M 28 00:06:22 00:05:05 CULTURE DANSE ETAPLES 14,760 04:04
81 225 ACLOQUE CYRIL 00:38:03 SEM 46 00:06:22 00:06:22 NON LICENCIE 14,760 04:04
82 521 MAILLARD ADRIEN 00:38:05 SEM 47 00:06:24 00:06:24 ATHLETISME CLUB OUTREAU 14,747 04:04
83 924 HOYER JOHHNY 00:38:05 SEM 48 00:06:24 00:06:24 BCK 14,747 04:04
84 622 LEVEL FABIEN 00:38:06 SEM 49 00:06:25 00:06:25 ATHLETIQUE CLUB CAPELLOIS 14,740 04:04
85 534 GILLODTS ISABELLE 00:38:06 V1F 1 00:06:25 00:00:00 CLUB ATHLE. COUDEKERQUE-B 14,740 04:04
86 767 BUCAILLE JOHNNY 00:38:08 SEM 50 00:06:27 00:06:27 FREVENT OLYMPIC CLUB 14,727 04:04
87 8 CABOCHE CHRISTOPHE 00:38:10 SEM 51 00:06:29 00:06:29 A.S. MARCK 14,714 04:05
88 517 ROBERT EMMANUEL 00:38:10 V1M 29 00:06:29 00:05:12 ATHLETISME CLUB OUTREAU 14,714 04:05
89 793 MALFOY BRUNO 00:38:11 V2M 6 00:06:30 00:03:40 NON LICENCIE 14,708 04:05
90 524 MERLIN LOIC 00:38:16 SEM 52 00:06:35 00:06:35 ATHLETISME CLUB OUTREAU 14,676 04:05
91 839 RAMET CHRISTIAN 00:38:20 V2M 7 00:06:39 00:03:49 TOUQUET OPALE ATHLETISME 14,650 04:06
92 349 VASSEUR DIMITRI 00:38:22 V1M 30 00:06:41 00:05:24 CALOTTERIE 14,638 04:06
93 266 LECRIVAIN MAXIME 00:38:23 CAM 1 00:06:42 00:00:00 BOULOGNE ATHLETIQUE CLUB 14,631 04:06
94 385 MAZURIER ALAIN 00:38:23 V1M 31 00:06:42 00:05:25 PATRIOTES DE GUINES 14,631 04:06
95 660 SAUVAGE CHARLIE 00:38:23 CAM 2 00:06:42 00:00:00 NON LICENCIE 14,631 04:06
96 558 RINGOT STEPHANIE 00:38:25 SEF 1 00:06:44 00:00:00 ATHLETISME CLUB OUTREAU 14,619 04:06
97 501 LARUELLE FREDERIC 00:38:35 V1M 32 00:06:54 00:05:37 WIMEREUX RUNNING CLUB 14,556 04:07
98 651 PIERRU REYNALD 00:38:35 V1M 33 00:06:54 00:05:37 PATRIOTES DE GUINES 14,556 04:07
99 330 MACQUINGHEN JULIEN 00:38:37 SEM 53 00:06:56 00:06:56 NON LICENCIE 14,543 04:08
100 201 DUBOIS KEVIN 00:38:39 JUM 2 00:06:58 00:04:17 COURIR A GRAVELINES 14,530 04:08
101 359 DESEILLE GAUTIER 00:38:39 JUM 3 00:06:58 00:04:17 BOULOGNE ATHLETIQUE CLUB 14,530 04:08
102 41 GARCIA FLORIAN 00:38:39 SEM 54 00:06:58 00:06:58 NON LICENCIE 14,530 04:08
103 15 VAILLANT JEROME 00:38:44 SEM 55 00:07:03 00:07:03 TEAM TRAIL 62 14,499 04:08
104 39 VAN EENOOGHE FRANCK 00:38:44 V1M 34 00:07:03 00:05:46 LES JOGGEURS DE GUEMPS 14,499 04:08
105 655 DUFOUR CHANTAL 00:38:51 V1F 2 00:07:10 00:00:45 TOUQUET OPALE ATHLETISME 14,456 04:09
106 109 CARDON FLORIAN 00:38:51 JUM 4 00:07:10 00:04:29 LE DRAPEAU 14,456 04:09
107 55 LEHON LUDOVIC 00:38:52 SEM 56 00:07:11 00:07:11 NON LICENCIE 14,449 04:09
108 788 SUEUR SAMUEL 00:38:52 SEM 57 00:07:11 00:07:11 NON LICENCIE 14,449 04:09
109 916 MESTRE NICOLAS 00:38:54 CAM 3 00:07:13 00:00:31 BOULOGNE CANOE KAYAK 14,437 04:09
110 433 PRUVOST PASCAL 00:38:58 V1M 35 00:07:17 00:06:00 O.S. AIRE 14,412 04:10
111 574 BOURGAIN SEBASTIEN 00:38:58 SEM 58 00:07:17 00:07:17 ATHLETISME CLUB OUTREAU 14,412 04:10
112 103 DUCROCQ LINDA 00:39:04 SEF 2 00:07:23 00:00:39 MARQUISE ATHLETISME 14,375 04:10
113 584 DEBUSSCHERE DAVID 00:39:07 V1M 36 00:07:26 00:06:09 ATHLETISME CLUB OUTREAU 14,357 04:11
114 460 STEEN FREDERIC 00:39:10 V1M 37 00:07:29 00:06:12 ARC INTERNATIONAL 14,339 04:11
115 650 LEMAITRE NICOLAS 00:39:11 SEM 59 00:07:30 00:07:30 PATRIOTES DE GUINES 14,333 04:11
116 277 REMBUR FRANCOIS 00:39:11 SEM 60 00:07:30 00:07:30 SPORT EVASION DES 2 CAPS 14,333 04:11
117 827 PARENT BLAISE 00:39:13 SEM 61 00:07:32 00:07:32 AS CAMIERS 14,320 04:11
118 121 KRONUS JOEL 00:39:14 V2M 8 00:07:33 00:04:43 SAINT MARTIN ATHLETISME 14,314 04:11
119 754 BECQUET DAVID 00:39:14 V1M 38 00:07:33 00:06:16 PATRIOTES DE GUINES 14,314 04:11
120 841 PERRAULT DAVID 00:39:15 V1M 39 00:07:34 00:06:17 CAMIERS 14,308 04:12
121 237 GOBERT LUDOVIC 00:39:15 SEM 62 00:07:34 00:07:34 C.S. NESLES 14,308 04:12
122 107 MOUSSAY MATTHIEU 00:39:20 SEM 63 00:07:39 00:07:39 Gravelines Triathlon 14,278 04:12
123 599 LASSALLE PASCAL 00:39:22 V1M 40 00:07:41 00:06:24 ATHLETISME CLUB OUTREAU 14,266 04:12
124 389 VERBRIGGHE NORBERT 00:39:23 SEM 64 00:07:42 00:07:42 FOULEES LOONOISES 14,260 04:12
125 577 CALOIN WILLIAM 00:39:25 V1M 41 00:07:44 00:06:27 ATHLETISME CLUB OUTREAU 14,248 04:13
126 362 BELLET JEAN-FRANCOIS 00:39:29 V1M 42 00:07:48 00:06:31 LYS CALAIS TRIATHLON 14,224 04:13
127 434 ANSEL SERGE 00:39:30 V2M 9 00:07:49 00:04:59 NON LICENCIE 14,218 04:13
128 271 TESSIER LAURENT 00:39:31 V1M 43 00:07:50 00:06:33 A.S. MARCK 14,212 04:13
129 925 FERRAND VINCENT 00:39:34 SEM 65 00:07:53 00:07:53 NON LICENCIE 14,194 04:14
130 304 LANNOY ERIC 00:39:35 V1M 44 00:07:54 00:06:37 NON LICENCIE 14,188 04:14
131 379 MAQUINGHEN CEDRIC 00:39:36 SEM 66 00:07:55 00:07:55 NON LICENCIE 14,182 04:14
132 52 SART THIERRY 00:39:44 V2M 10 00:08:03 00:05:13 ATHLETISME CLUB OUTREAU 14,134 04:15
133 210 BRISBAERT JEAN LUC 00:39:44 V2M 11 00:08:03 00:05:13 COURIR A GRAVELINES 14,134 04:15
134 700 DEFACHELLES GEOFFREY 00:39:45 SEM 67 00:08:04 00:08:04 TEAM TRAIL 62 14,128 04:15
135 556 POULAIN ADRIEN 00:39:46 V1M 45 00:08:05 00:06:48 ATHLETISME CLUB OUTREAU 14,122 04:15
136 593 GALLEZ JEROME 00:39:47 V1M 46 00:08:06 00:06:49 ATHLETISME CLUB OUTREAU 14,116 04:15
137 760 CREPIN JOSE 00:39:48 V1M 47 00:08:07 00:06:50 NON LICENCIE 14,111 04:15
138 923 BEAUMONT MAXIME 00:39:50 SEM 68 00:08:09 00:08:09 BOULOGNE CANOE KAYAK 14,099 04:15
139 297 LEBLOND STEPHANE 00:39:50 SEM 69 00:08:09 00:08:09 NON LICENCIE 14,099 04:15
140 378 MOYSE CHRISTOPHE 00:39:50 V1M 48 00:08:09 00:06:52 TOUQUET OPALE ATHLETISME 14,099 04:15
141 491 FORESTIER ALAIN 00:39:52 V1M 49 00:08:11 00:06:54 AMICALE HOSPITALIERS BOULOGNE 14,087 04:16
142 99 DOCQUOIS FLORIAN 00:39:53 JUM 5 00:08:12 00:05:31 ATHLETISME CLUB OUTREAU 14,081 04:16
143 369 RIFFARD THOMAS 00:39:54 SEM 70 00:08:13 00:08:13   14,075 04:16
144 193 VANDERSTRAETEN KARINE 00:40:02 V1F 3 00:08:21 00:01:56 COURIR A GRAVELINES 14,028 04:17
145 643 DUCROCQ PATRICK 00:40:04 V2M 12 00:08:23 00:05:33 PATRIOTES DE GUINES 14,017 04:17
146 819 BELLOY JEAN-FRANCOIS 00:40:07 SEM 71 00:08:26 00:08:26 BOULOGNE ATHLETIQUE CLUB 13,999 04:17
147 867 HALLENNE VALERY 00:40:09 V1M 50 00:08:28 00:07:11 TOUQUET OPALE ATHLETISME 13,988 04:17
148 278 ANDRIEUX DIMITRI 00:40:11 SEM 72 00:08:30 00:08:30 MARCK ATHLON 13,976 04:18
149 592 FONTAINE NICOLAS 00:40:11 SEM 73 00:08:30 00:08:30 ATHLETISME CLUB OUTREAU 13,976 04:18
150 604 LETITRE BRUNO 00:40:17 SEM 74 00:08:36 00:08:36 ATHLETISME CLUB OUTREAU 13,941 04:18
151 608 LEDOLLEY CHRISTOPHE 00:40:17 V2M 13 00:08:36 00:05:46 ATHLETIQUE CLUB CAPELLOIS 13,941 04:18
152 450 DUBOIS STEPHANE 00:40:19 SEM 75 00:08:38 00:08:38 ARC INTERNATIONAL 13,930 04:18
153 446 DE CLERCQ ERIC 00:40:19 V1M 51 00:08:38 00:07:21 ARC INTERNATIONAL 13,930 04:18
154 623 BRIEZ ARNAUD 00:40:20 SEM 76 00:08:39 00:08:39 ATHLETIQUE CLUB CAPELLOIS 13,924 04:19
155 538 LELEU LAETITIA 00:40:20 SEF 3 00:08:39 00:01:55 LE DRAPEAU 13,924 04:19
156 168 BOURGAIN MICKAEL 00:40:21 SEM 77 00:08:40 00:08:40 OPALE TRAIL NATURE 13,918 04:19
157 253 ROBART EDDY 00:40:22 V1M 52 00:08:41 00:07:24 C.S. NESLES 13,912 04:19
158 585 DEBUSSCHERE MIKAEL 00:40:23 SEM 78 00:08:42 00:08:42 ATHLETISME CLUB OUTREAU 13,907 04:19
159 314 DIEVAL JACQUES 00:40:27 V1M 53 00:08:46 00:07:29 NON LICENCIE 13,884 04:19
160 75 HARDY FABIEN 00:40:29 V1M 54 00:08:48 00:07:31 LES JOGGEURS DE GUEMPS 13,872 04:20
161 786 LIBERT OLIVIER 00:40:31 SEM 79 00:08:50 00:08:50 NON LICENCIE 13,861 04:20
162 365 BARGUET HUGO 00:40:33 CAM 4 00:08:52 00:02:10 O.S. AIRE 13,850 04:20
163 282 GAVEL GREGORY 00:40:33 SEM 80 00:08:52 00:08:52 SPORT EVASION DES 2 CAPS 13,850 04:20
164 406 CARPENTIER THIERRY 00:40:34 V1M 55 00:08:53 00:07:36 SPORT EVASION DES 2 CAPS 13,844 04:20
165 111 DACQUIN FABIEN 00:40:34 V1M 56 00:08:53 00:07:36 TEAM TRAIL 62 13,844 04:20
166 32 DUBREU ADRIEN 00:40:37 CAM 5 00:08:56 00:02:14 O.S. AIRE 13,827 04:20
167 576 BRILLARD SEBASTIEN 00:40:38 SEM 81 00:08:57 00:08:57 ATHLETISME CLUB OUTREAU 13,821 04:20
168 668 SCHUPPE CLOTAIRE 00:40:38 V2M 14 00:08:57 00:06:07 A.S. MARCK 13,821 04:20
169 136 BERQUEZ CORENTIN 00:40:38 SEM 82 00:08:57 00:08:57 SAINT MARTIN ATHLETISME 13,821 04:20
170 564 SENECHAL SEBASTIEN 00:40:39 V1M 57 00:08:58 00:07:41 ATHLETISME CLUB OUTREAU 13,815 04:21
171 320 PIENTON CEDRIC 00:40:39 SEM 83 00:08:58 00:08:58 LE DRAPEAU 13,815 04:21
172 699 LE BEC MICHAEL 00:40:40 SEM 84 00:08:59 00:08:59 TEAM TRAIL 62 13,810 04:21
173 586 DEFIENNES CLAUDE 00:40:42 V3M 2 00:09:01 00:02:51 ATHLETISME CLUB OUTREAU 13,799 04:21
174 13 LEMAITRE LAURENT 00:40:43 V1M 58 00:09:02 00:07:45 NON LICENCIE 13,793 04:21
175 463 MARTIN YANNICK 00:40:44 SEM 85 00:09:03 00:09:03 NON LICENCIE 13,787 04:21
176 112 MALBRANQUE JACKIE 00:40:45 V3M 3 00:09:04 00:02:54 JOGGING CLUB HARNESIEN 13,782 04:21
177 63 FEUTRY CHRISTOPHE 00:40:49 V2M 15 00:09:08 00:06:18 A.S. MARCK 13,759 04:22
178 137 TRIBOUILLOY VINCENT 00:40:50 SEM 86 00:09:09 00:09:09 SAINT MARTIN ATHLETISME 13,753 04:22
179 275 MALE MICHAEL 00:40:50 V1M 59 00:09:09 00:07:52 SPORT EVASION DES 2 CAPS 13,753 04:22
180 568 BAUDELET DAVID 00:40:50 SEM 87 00:09:09 00:09:09 ATHLETISME CLUB OUTREAU 13,753 04:22
181 562 ROGERE MARC 00:40:51 SEM 88 00:09:10 00:09:10 ATHLETISME CLUB OUTREAU 13,748 04:22
182 44 DUFOUR ANTOINE 00:40:53 SEM 89 00:09:12 00:09:12 C.S. NESLES 13,737 04:22
183 2 MIRMONT REMI 00:40:54 SEM 90 00:09:13 00:09:13 LE DRAPEAU 13,731 04:22
184 192 VANDERSTRAETEN CHRISTOPHE 00:40:56 V1M 60 00:09:15 00:07:58 COURIR A GRAVELINES 13,720 04:22
185 873 BREFORT MICKAEL 00:41:01 SEM 91 00:09:20 00:09:20 NON LICENCIE 13,692 04:23
186 352 BOUCHIQUET PASCAL 00:41:03 V1M 61 00:09:22 00:08:05 CLUB ATHLE. COUDEKERQUE-B 13,681 04:23
187 572 BOBEE NATHALIE 00:41:03 V1F 4 00:09:22 00:02:57 ATHLETISME CLUB OUTREAU 13,681 04:23
188 897 DEVOS FLORIAN 00:41:05 CAM 6 00:09:24 00:02:42 E.S. ARQUES 13,670 04:23
189 591 FEUTRY CHRISTOPHE 00:41:09 V1M 62 00:09:28 00:08:11 ATHLETISME CLUB OUTREAU 13,648 04:24
190 880 BRIDOUX DAVID 00:41:09 V1M 63 00:09:28 00:08:11 NON LICENCIE 13,648 04:24
191 761 ARZEL BENJAMIN 00:41:10 SEM 92 00:09:29 00:09:29 NON LICENCIE 13,642 04:24
192 105 NEMPONT FREDERIC 00:41:10 V1M 64 00:09:29 00:08:12 NON LICENCIE 13,642 04:24
193 631 LAVIER MARC 00:41:12 SEM 93 00:09:31 00:09:31   13,631 04:24
194 659 ESCUDERO XAVIER 00:41:15 V1M 65 00:09:34 00:08:17 HENIN ENDURANCE TEAM 13,615 04:24
195 715 BACKEROOT JASON 00:41:15 CAM 7 00:09:34 00:02:52 NON LICENCIE 13,615 04:24
196 132 BAILLY FRANCOIS XAVIER 00:41:15 SEM 94 00:09:34 00:09:34 SAINT MARTIN ATHLETISME 13,615 04:24
197 582 DEBOVE MICHEL 00:41:17 V1M 66 00:09:36 00:08:19 ATHLETISME CLUB OUTREAU 13,604 04:25
198 610 NOEL DAVID 00:41:19 V1M 67 00:09:38 00:08:21 ATHLETIQUE CLUB CAPELLOIS 13,593 04:25
199 732 VERRIELE BENOIT 00:41:20 V1M 68 00:09:39 00:08:22 ARC INTERNATIONAL 13,587 04:25
200 883 ROUMIGUIERE REMI 00:41:21 SEM 95 00:09:40 00:09:40 NON LICENCIE 13,582 04:25
201 212 PAVY FREDERIC 00:41:22 V1M 69 00:09:41 00:08:24 NON LICENCIE 13,576 04:25
202 114 GIROUD FRANCK 00:41:25 V1M 70 00:09:44 00:08:27 A.S. MARCK 13,560 04:25
203 645 FOURNIER JEROME 00:41:25 SEM 96 00:09:44 00:09:44 PATRIOTES DE GUINES 13,560 04:25
204 303 KRISSAANE HEDI 00:41:26 V1M 71 00:09:45 00:08:28 A.S. MARCK 13,554 04:26
205 262 GODART JEAN-CHRISTOPHE 00:41:26 V1M 72 00:09:45 00:08:28 NON LICENCIE 13,554 04:26
206 777 GRESSIER OLIVIER 00:41:28 V1M 73 00:09:47 00:08:30 FREVENT OLYMPIC CLUB 13,543 04:26
207 300 LOBEZ BAPTISTE 00:41:30 SEM 97 00:09:49 00:09:49 NON LICENCIE 13,533 04:26
208 146 BORDEZ FRANCK 00:41:31 V2M 16 00:09:50 00:07:00 SPORT PLUS 13,527 04:26
209 614 LEFEBVRE MAXENCE 00:41:31 CAM 8 00:09:50 00:03:08 ATHLETIQUE CLUB CAPELLOIS 13,527 04:26
210 243 VASSEUR MICKAEL 00:41:31 V1M 74 00:09:50 00:08:33 SPORT PLUS 13,527 04:26
211 858 KUPCZYK MARIAN 00:41:32 SEM 98 00:09:51 00:09:51 NON LICENCIE 13,522 04:26
212 581 DAUTREVAUX DAVID 00:41:34 V1M 75 00:09:53 00:08:36 ATHLETISME CLUB OUTREAU 13,511 04:26
213 566 WATTEZ ERIC 00:41:35 V2M 17 00:09:54 00:07:04 ATHLETISME CLUB OUTREAU 13,505 04:27
214 119 PHILIS JACQUES 00:41:37 V3M 4 00:09:56 00:03:46 TOUQUET OPALE ATHLETISME 13,495 04:27
215 198 COMBET PHILIPPE 00:41:41 V2M 18 00:10:00 00:07:10 COURIR A GRAVELINES 13,473 04:27
216 654 QUENNEHEN HERVE 00:41:42 V1M 76 00:10:01 00:08:44 PATRIOTES DE GUINES 13,468 04:27
217 756 GENSANE FABRICE 00:41:43 V1M 77 00:10:02 00:08:45 NON LICENCIE 13,462 04:27
218 315 DAMIENS PHILIPPE 00:41:44 V1M 78 00:10:03 00:08:46 LE DRAPEAU 13,457 04:28
219 778 DELAVIEZ JEAN-MARC 00:41:47 V2M 19 00:10:06 00:07:16 FREVENT OLYMPIC CLUB 13,441 04:28
220 64 VASSEUR THIERRY 00:41:49 V1M 79 00:10:08 00:08:51 NON LICENCIE 13,430 04:28
221 38 VAN EENOOGHE SYLVIE 00:41:51 V1F 5 00:10:10 00:03:45 LES JOGGEURS DE GUEMPS 13,419 04:28
222 6 QUENUT FRANCK 00:41:51 V1M 80 00:10:10 00:08:53 O.S. AIRE 13,419 04:28
223 578 CAULIER FREDDY 00:41:52 V2M 20 00:10:11 00:07:21 ATHLETISME CLUB OUTREAU 13,414 04:28
224 613 BARROIS CELINE 00:41:53 SEF 4 00:10:12 00:03:28 ATHLETIQUE CLUB CAPELLOIS 13,409 04:28
225 773 FORICKY LUDOVIC 00:41:56 SEM 99 00:10:15 00:10:15 NON LICENCIE 13,393 04:29
226 305 SENET EMILIE 00:41:56 SEF 5 00:10:15 00:03:31 A.S. MARCK 13,393 04:29
227 97 GIGADEN FRANCK 00:41:56 V1M 81 00:10:15 00:08:58 X'TREM TEAM 13,393 04:29
228 625 BARROIS CEDRIC 00:41:58 SEM 100 00:10:17 00:10:17 ATHLETIQUE CLUB CAPELLOIS 13,382 04:29
229 551 NOURTIER NICOLAS 00:42:00 SEM 101 00:10:19 00:10:19 ATHLETISME CLUB OUTREAU 13,371 04:29
230 19 BEAUCAMP JOSE 00:42:03 V1M 82 00:10:22 00:09:05 SO CALAIS 13,356 04:30
231 410 CARLIER ARNAUD 00:42:04 V1M 83 00:10:23 00:09:06 COLEMBERT 13,350 04:30
232 621 LEVEL LINA 00:42:06 SEF 6 00:10:25 00:03:41 ATHLETIQUE CLUB CAPELLOIS 13,340 04:30
233 932 LAMBERT GUILLAUME 00:42:10 SEM 102 00:10:29 00:10:29 NON LICENCIE 13,319 04:30
234 823 MIRGUET MIKE 00:42:10 SEM 103 00:10:29 00:10:29 AS CAMIERS 13,319 04:30
235 678 MOUSSAY LAURENT 00:42:16 V1M 84 00:10:35 00:09:18 NON LICENCIE 13,287 04:31
236 72 LEFEBVRE LUDOVIC 00:42:16 V1M 85 00:10:35 00:09:18 A.S. MARCK 13,287 04:31
237 771 DANGER LAURENT 00:42:16 V2M 21 00:10:35 00:07:45 NON LICENCIE 13,287 04:31
238 467 LE SCIELLOUR BRUNO 00:42:19 V2M 22 00:10:38 00:07:48 LE DRAPEAU 13,271 04:31
239 917 HALOUZA MARK 00:42:22 CAM 9 00:10:41 00:03:59   13,256 04:32
240 319 FLAHAUT DANIEL 00:42:22 V1M 86 00:10:41 00:09:24 LE DRAPEAU 13,256 04:32
241 859 VASSEUR MATTHIEU 00:42:23 SEM 104 00:10:42 00:10:42 NON LICENCIE 13,250 04:32
242 219 CARDON BENOIT 00:42:23 CAM 10 00:10:42 00:04:00 LE DRAPEAU 13,250 04:32
243 145 BAILLET CHRISTIAN 00:42:26 V2M 23 00:10:45 00:07:55 SPORT PLUS 13,235 04:32
244 682 DUCROCQ ANTHONY 00:42:27 SEM 105 00:10:46 00:10:46 TRIATHLON CLUB BOULONNAIS 13,230 04:32
245 125 DEFOSSE ALEXANDRE 00:42:29 SEM 106 00:10:48 00:10:48 SAINT MARTIN ATHLETISME 13,219 04:32
246 161 VERITE CEDRIC 00:42:30 SEM 107 00:10:49 00:10:49 SPORT PLUS 13,214 04:32
247 889 FOURQUEZ CHRISTOPHE 00:42:31 V1M 87 00:10:50 00:09:33 NON LICENCIE 13,209 04:33
248 308 VANDENABEELE VIRGINIE 00:42:34 SEF 7 00:10:53 00:04:09 A.S. MARCK 13,193 04:33
249 617 SAUVAGE LAURENT 00:42:36 V1M 88 00:10:55 00:09:38 ATHLETIQUE CLUB CAPELLOIS 13,183 04:33
250 855 ?Dossard #855 00:42:36 SEM 108 00:10:55 00:10:55   13,183 04:33
251 937 VOIR INFO 00:42:37 SEM 109 00:10:56 00:10:56 NON LICENCIE 13,178 04:33
252 458 SAGOT PHILIPPE 00:42:37 V1M 89 00:10:56 00:09:39 ARC INTERNATIONAL 13,178 04:33
253 66 DETRES JEAN-BERNARD 00:42:38 V1M 90 00:10:57 00:09:40 A.S. MARCK 13,173 04:33
254 612 BREQUEVILLE LIONEL 00:42:41 V1M 91 00:11:00 00:09:43 ATHLETIQUE CLUB CAPELLOIS 13,157 04:34
255 762 CHOUROT LUCIEN 00:42:41 V2M 24 00:11:00 00:08:10 LE DRAPEAU 13,157 04:34
256 471 ROSE DANIEL 00:42:45 V2M 25 00:11:04 00:08:14 COURIR DANS LE LUMBROIS 13,137 04:34
257 694 HODICQ FREDDY 00:42:47 SEM 110 00:11:06 00:11:06 TEAM TRAIL 62 13,127 04:34
258 636 BATILLIOT DOMINIQUE 00:42:48 V1F 6 00:11:07 00:04:42 PATRIOTES DE GUINES 13,121 04:34
259 757 FELINE DANIEL 00:42:48 V1M 92 00:11:07 00:09:50 NON LICENCIE 13,121 04:34
260 82 LEBECQ LAURENT 00:42:52 SEM 111 00:11:11 00:11:11   13,101 04:35
261 783 VILLETTE FRANCIS 00:42:53 V2M 26 00:11:12 00:08:22 NON LICENCIE 13,096 04:35
262 372 CHAMPION BRUNO 00:42:54 V1M 93 00:11:13 00:09:56 NON LICENCIE 13,091 04:35
263 43 LHERONDELLE CHRISTOPHER 00:43:00 SEM 112 00:11:19 00:11:19 BOULOGNE ATHLETIQUE CLUB 13,060 04:36
264 882 DUPONT BENJAMIN 00:43:02 SEM 113 00:11:21 00:11:21 CULTURE DANSE ETAPLES 13,050 04:36
265 515 RIVET NICOLAS 00:43:03 V1M 94 00:11:22 00:10:05 NON LICENCIE 13,045 04:36
266 223 CRETON JULIEN 00:43:04 SEM 114 00:11:23 00:11:23 NON LICENCIE 13,040 04:36
267 197 MOUILLARD DANIEL 00:43:04 V1M 95 00:11:23 00:10:06 NON LICENCIE 13,040 04:36
268 753 BAY FREDERIC 00:43:05 SEM 115 00:11:24 00:11:24 NON LICENCIE 13,035 04:36
269 684 ANDRIEUX JOEL 00:43:05 V1M 96 00:11:24 00:10:07 NON LICENCIE 13,035 04:36
270 874 WATTEZ JULIEN 00:43:06 SEM 116 00:11:25 00:11:25 ESCAP'AVENTURE 13,030 04:36
271 337 MAHIEUX JEAN-LUC 00:43:07 V2M 27 00:11:26 00:08:36 NON LICENCIE 13,025 04:36
272 245 MOLENBERGHS LAURENT 00:43:08 V1M 97 00:11:27 00:10:10 A.S. MARCK 13,020 04:36
273 635 BAILLET DAVID 00:43:10 V1M 98 00:11:29 00:10:12 PATRIOTES DE GUINES 13,010 04:37
274 461 TANKERE PHILIPPE 00:43:11 V2M 28 00:11:30 00:08:40 ARC INTERNATIONAL 13,005 04:37
275 769 LEON CONCEPTION REBECCA 00:43:18 V1F 7 00:11:37 00:05:12 O.S. AIRE 12,970 04:38
276 88 PAINSET NICOLAS 00:43:18 V1M 99 00:11:37 00:10:20 NON LICENCIE 12,970 04:38
277 789 MORTIER ARMAND 00:43:19 SEM 117 00:11:38 00:11:38 NON LICENCIE 12,965 04:38
278 324 LEVEL EDDY 00:43:21 V1M 100 00:11:40 00:10:23 NON LICENCIE 12,955 04:38
279 895 DOUILLEZ VINCENT 00:43:22 V1M 101 00:11:41 00:10:24 NON LICENCIE 12,950 04:38
280 343 LHOMEL ANTOINE 00:43:23 SEM 118 00:11:42 00:11:42 TRIATHLON ABEVILLE 12,945 04:38
281 826 DELAY BASTIEN 00:43:26 JUM 6 00:11:45 00:09:04 ASC CAMIERS 12,930 04:38
282 530 NAVET SEBASTIEN 00:43:28 V1M 102 00:11:47 00:10:30 ATHLETISME CLUB OUTREAU 12,920 04:39
283 316 APHERVE REGIS 00:43:29 V1M 103 00:11:48 00:10:31 LE DRAPEAU 12,915 04:39
284 466 HACQUEL MICHEL 00:43:29 V1M 104 00:11:48 00:10:31 LE DRAPEAU 12,915 04:39
285 626 BEAUGRAND GREGORY 00:43:30 V1M 105 00:11:49 00:10:32 ATHLETIQUE CLUB CAPELLOIS 12,910 04:39
286 470 LEGAY HENRI 00:43:30 V2M 29 00:11:49 00:08:59 COURIR DANS LE LUMBROIS 12,910 04:39
287 615 OVION SYLVESTRE 00:43:30 V1M 106 00:11:49 00:10:32 ATHLETIQUE CLUB CAPELLOIS 12,910 04:39
288 238 INGOUF NATHALIE 00:43:33 V1F 8 00:11:52 00:05:27 LE DRAPEAU 12,896 04:39
289 87 TERNISIEN TOM 00:43:33 CAM 11 00:11:52 00:05:10 NON LICENCIE 12,896 04:39
290 825 LEFEVRE PHILIPPE 00:43:34 V1M 107 00:11:53 00:10:36 SAINT MARTIN ATHLETISME 12,891 04:39
291 195 BLOCKELET ROMUALD 00:43:34 SEM 119 00:11:53 00:11:53 COURIR A GRAVELINES 12,891 04:39
292 478 ROCHE BERNARD 00:43:36 V2M 30 00:11:55 00:09:05 NON LICENCIE 12,881 04:39
293 915 TOROSSIAN FRANCOIS 00:43:41 SEM 120 00:12:00 00:12:00 NON LICENCIE 12,856 04:40
294 910 DEBAILLEUX PIERRE 00:43:43 SEM 121 00:12:02 00:12:02 NON LICENCIE 12,846 04:40
295 942 ROUSSELLE BAPTISTE 00:43:47 SEM 122 00:12:06 00:12:06 NON LICENCIE 12,827 04:41
296 480 CANNIE FRANCK 00:43:48 V1M 108 00:12:07 00:10:50 NON LICENCIE 12,822 04:41
297 179 DECRIEM ERIC 00:43:50 V2M 31 00:12:09 00:09:19 COURIR A GRAVELINES 12,812 04:41
298 229 LAURENT OLIVIER 00:43:53 SEM 123 00:12:12 00:12:12 NON LICENCIE 12,798 04:41
299 258 DEU ROBIN 00:43:53 SEM 124 00:12:12 00:12:12 NON LICENCIE 12,798 04:41
300 157 METTIER JEAN-FRANCOIS 00:43:54 V1M 109 00:12:13 00:10:56 SPORT PLUS 12,793 04:41
301 529 MOUCHON JONATHAN 00:43:54 SEM 125 00:12:13 00:12:13 ATHLETISME CLUB OUTREAU 12,793 04:41
302 894 MAHY THIERRY 00:43:54 SEM 126 00:12:13 00:12:13 NON LICENCIE 12,793 04:41
303 886 MASSY ANDREW 00:43:55 SEM 127 00:12:14 00:12:14 NON LICENCIE 12,788 04:42
304 62 DUCAMP ELODIE 00:43:57 SEF 8 00:12:16 00:05:32 NON LICENCIE 12,778 04:42
305 601 LELAN CEDRIC 00:43:58 V1M 110 00:12:17 00:11:00 ATHLETISME CLUB OUTREAU 12,773 04:42
306 787 DELCUSE SEBASTIEN 00:44:01 V1M 111 00:12:20 00:11:03 ELAN FRUGEOIS 12,759 04:42
307 156 FLOURET LAUGIER STEPHANIE 00:44:02 SEF 9 00:12:21 00:05:37 SPORT PLUS 12,754 04:42
308 272 DESTREZ CHRISTOPHE 00:44:07 V1M 112 00:12:26 00:11:09 NON LICENCIE 12,730 04:43
309 217 DELANNOY FRANCOIS 00:44:10 SEM 128 00:12:29 00:12:29 JOGGING CLUB LAPUGNOY 12,715 04:43
310 120 LEGAGNEUR MAURICE 00:44:10 V3M 5 00:12:29 00:06:19 SAINT MARTIN ATHLETISME 12,715 04:43
311 782 DUMONT PATRICE 00:44:12 SEM 129 00:12:31 00:12:31 BOURTHES 12,706 04:43
312 441 CAINNE BRUNO 00:44:16 V2M 32 00:12:35 00:09:45 ARC INTERNATIONAL 12,687 04:44
313 77 FAIT JEAN-PHILIPPE 00:44:16 V1M 113 00:12:35 00:11:18 TOUQUET TRAIL NATURE 12,687 04:44
314 74 LEBLOND ARNAUD 00:44:18 SEM 130 00:12:37 00:12:37 NON LICENCIE 12,677 04:44
315 595 GRASSELLI SABRINA 00:44:20 SEF 10 00:12:39 00:05:55 ATHLETISME CLUB OUTREAU 12,668 04:44
316 522 MAILLOT JEAN-LOUIS 00:44:20 V2M 33 00:12:39 00:09:49 ATHLETISME CLUB OUTREAU 12,668 04:44
317 679 ROLAND DAVID 00:44:21 SEM 131 00:12:40 00:12:40   12,663 04:44
318 208 TELER MATHIEU 00:44:22 SEM 132 00:12:41 00:12:41 COURIR A GRAVELINES 12,658 04:44
319 422 RAVEL MARC 00:44:23 V2M 34 00:12:42 00:09:52 COLEMBERT 12,653 04:45
320 340 BRICHE ERIC 00:44:26 V2M 35 00:12:45 00:09:55 SAINT MARTIN ATHLETISME 12,639 04:45
321 913 CALMELS NICOLAS 00:44:28 SEM 133 00:12:47 00:12:47 NON LICENCIE 12,630 04:45
322 728 THIEULEUX SOPHIE 00:44:29 SEF 11 00:12:48 00:06:04 O.S. AIRE 12,625 04:45
323 856 PRUVOST ROMAIN 00:44:31 SEM 134 00:12:50 00:12:50 NON LICENCIE 12,615 04:45
324 836 COFFIN MICHAEL 00:44:34 SEM 135 00:12:53 00:12:53 NON LICENCIE 12,601 04:46
325 695 POUILLY KEVIN 00:44:34 CAM 12 00:12:53 00:06:11 TEAM TRAIL 62 12,601 04:46
326 48 CRETEL LAURENT 00:44:36 V1M 114 00:12:55 00:11:38 C.S. NESLES 12,592 04:46
327 888 LIGNIER SEBASTIEN 00:44:37 SEM 136 00:12:56 00:12:56 NON LICENCIE 12,587 04:46
328 709 REGNIER BENJAMIN 00:44:40 SEM 137 00:12:59 00:12:59 NON LICENCIE 12,573 04:46
329 122 HADOUX ALAIN 00:44:42 SEM 138 00:13:01 00:13:01 SAINT MARTIN ATHLETISME 12,564 04:47
330 821 DELATTAIGNANT ARNAUD 00:44:43 V1M 115 00:13:02 00:11:45 NON LICENCIE 12,559 04:47
331 226 MORAUD JEAN-YVES 00:44:50 V2M 36 00:13:09 00:10:19   12,526 04:47
332 329 JUSTIN LUCIEN 00:44:53 V3M 6 00:13:12 00:07:02 ATHLETISME CLUB OUTREAU 12,512 04:48
333 69 TISSERAND THIBAUT 00:44:54 JUM 7 00:13:13 00:10:32 NON LICENCIE 12,508 04:48
334 535 CANONNE FANNY 00:44:55 SEF 12 00:13:14 00:06:30 LE DRAPEAU 12,503 04:48
335 550 KAMEL LAID 00:44:56 SEM 139 00:13:15 00:13:15   12,499 04:48
336 527 MOLMY DAVID 00:44:57 V1M 116 00:13:16 00:11:59 ATHLETISME CLUB OUTREAU 12,494 04:48
337 781 BEN ABDELHADI FARAD 00:44:58 CAM 13 00:13:17 00:06:35 NON LICENCIE 12,489 04:48
338 396 LE COZ PIERRE-YVES 00:44:59 SEM 140 00:13:18 00:13:18 NON LICENCIE 12,485 04:48
339 123 BARRAS PHILIPPE 00:44:59 V3M 7 00:13:18 00:07:08 SAINT MARTIN ATHLETISME 12,485 04:48
340 246 HARDOIN JEAN-FRANCOIS 00:45:00 V1M 117 00:13:19 00:12:02 SAINT MARTIN ATHLETISME 12,480 04:48
341 652 PIERRU SIGRID 00:45:05 V1F 9 00:13:24 00:06:59 PATRIOTES DE GUINES 12,457 04:49
342 890 DELATTRE YOHANN 00:45:05 SEM 141 00:13:24 00:13:24 NON LICENCIE 12,457 04:49
343 681 BARBAUT ISABELLE 00:45:05 V1F 10 00:13:24 00:06:59 A.S. MARCK 12,457 04:49
344 92 CHARTAUX RAPHAEL 00:45:08 V1M 118 00:13:27 00:12:10 C.S. NESLES 12,443 04:49
345 948 BECLIN JEROME 00:45:10 SEM 142 00:13:29 00:13:29   12,434 04:50
346 249 LEFRANC OLIVIER 00:45:11 V1M 119 00:13:30 00:12:13 SAINT MARTIN ATHLETISME 12,429 04:50
347 428 CHAUCHOY OLIVIER 00:45:12 V1M 120 00:13:31 00:12:14 COLEMBERT 12,425 04:50
348 127 DAQUIN GERARD 00:45:13 V2M 37 00:13:32 00:10:42 SAINT MARTIN ATHLETISME 12,420 04:50
349 891 SELINGUE GUILLAUME 00:45:17 SEM 143 00:13:36 00:13:36 SAPEURS POMPIERS DESVRES 12,402 04:50
350 502 SPILMONT NICOLAS 00:45:18 SEM 144 00:13:37 00:13:37 WIMEREUX RUNNING CLUB 12,397 04:50
351 199 CUVELLIER PHILIPPE 00:45:18 V2M 38 00:13:37 00:10:47 COURIR A GRAVELINES 12,397 04:50
352 358 DUFOUR OLIVIER 00:45:19 V1M 121 00:13:38 00:12:21   12,393 04:50
353 607 CAPIAUX FABIEN 00:45:21 V1M 122 00:13:40 00:12:23 MARQUISE 12,384 04:51
354 857 COCQUET VINCENT 00:45:22 V1M 123 00:13:41 00:12:24 MARCK ATHLON 12,379 04:51
355 740 DUBOIS LUDOVIC 00:45:24 SEM 145 00:13:43 00:13:43 NON LICENCIE 12,370 04:51
356 557 RENARD JULIEN 00:45:26 SEM 146 00:13:45 00:13:45 ATHLETISME CLUB OUTREAU 12,361 04:51
357 392 DELATTRE JEAN SEBASTIEN 00:45:27 V1M 124 00:13:46 00:12:29 NON LICENCIE 12,356 04:51
358 488 BRIMEUX LUDOVIC 00:45:27 SEM 147 00:13:46 00:13:46 AMICALE HOSPITALIERS BOULOGNE 12,356 04:51
359 21 LIAGRE FREDERIC 00:45:28 V1M 125 00:13:47 00:12:30 A.S. MARCK 12,352 04:51
360 596 HOCQ BRUNO 00:45:29 V1M 126 00:13:48 00:12:31 ATHLETISME CLUB OUTREAU 12,347 04:52
361 624 HOLUIGUE FREDERIC 00:45:31 SEM 148 00:13:50 00:13:50 ATHLETIQUE CLUB CAPELLOIS 12,338 04:52
362 482 REMBUR JEAN-PAUL 00:45:31 V2M 39 00:13:50 00:11:00 NON LICENCIE 12,338 04:52
363 144 PERARD FREDDY 00:45:33 V2M 40 00:13:52 00:11:02 SAINT MARTIN ATHLETISME 12,329 04:52
364 98 DOCQUOIS MICHEL 00:45:33 V1M 127 00:13:52 00:12:35 LE DRAPEAU 12,329 04:52
365 457 RECOURT TEDDY 00:45:36 CAM 14 00:13:55 00:07:13 ARC INTERNATIONAL 12,316 04:52
366 764 LAMPE NICOLAS 00:45:38 SEM 149 00:13:57 00:13:57 NON LICENCIE 12,307 04:53
367 149 CAPPELE DOMINIQUE 00:45:38 SEM 150 00:13:57 00:13:57 SPORT PLUS 12,307 04:53
368 638 DENEZ ANNE-SOPHIE 00:45:39 V1F 11 00:13:58 00:07:33 PATRIOTES DE GUINES 12,302 04:53
369 131 CHALOT KEVIN 00:45:44 SEM 151 00:14:03 00:14:03 SAINT MARTIN ATHLETISME 12,280 04:53
370 257 DEU DAVID 00:45:45 SEM 152 00:14:04 00:14:04 NON LICENCIE 12,275 04:53
371 274 MONTIGNY DIMITRI 00:45:45 SEM 153 00:14:04 00:14:04 SPORT EVASION DES 2 CAPS 12,275 04:53
372 731 SAVEANT GUILLAUME 00:45:46 SEM 154 00:14:05 00:14:05 NON LICENCIE 12,271 04:53
373 31 DELATTRE GUILLAUME 00:45:46 SEM 155 00:14:05 00:14:05 NON LICENCIE 12,271 04:53
374 83 POTTIER KARL 00:45:46 V1M 128 00:14:05 00:12:48 NON LICENCIE 12,271 04:53
375 345 PETIT MATHIEU 00:45:47 SEM 156 00:14:06 00:14:06 NON LICENCIE 12,266 04:53
376 763 GOURLE FABIEN 00:45:47 SEM 157 00:14:06 00:14:06 NON LICENCIE 12,266 04:53
377 451 LEGRAND CHRISTOPHE 00:45:51 V1M 129 00:14:10 00:12:53 ARC INTERNATIONAL 12,249 04:54
378 448 DUBOIS DAVID 00:45:51 V1M 130 00:14:10 00:12:53 ARC INTERNATIONAL 12,249 04:54
379 51 BAHEUX JEAN MICHEL 00:45:56 V3M 8 00:14:15 00:08:05 NON LICENCIE 12,226 04:54
380 494 LOEUILLEUX BERTRAND 00:45:56 V2M 41 00:14:15 00:11:25 AMICALE HOSPITALIERS BOULOGNE 12,226 04:54
381 611 SAUVAGE ERIC 00:45:58 V2M 42 00:14:17 00:11:27 ATHLETIQUE CLUB CAPELLOIS 12,218 04:55
382 779 PERNIN PATRICE 00:46:01 V2M 43 00:14:20 00:11:30 NON LICENCIE 12,204 04:55
383 473 STEVENART MICHEL 00:46:02 V2M 44 00:14:21 00:11:31 COURIR DANS LE LUMBROIS 12,200 04:55
384 939 MORET ALEXANDRE 00:46:02 SEM 158 00:14:21 00:14:21 NON LICENCIE 12,200 04:55
385 206 TASSOU LAURENT 00:46:06 V1M 131 00:14:25 00:13:08 COURIR A GRAVELINES 12,182 04:56
386 775 BRAME BRUNO 00:46:06 V2M 45 00:14:25 00:11:35 NON LICENCIE 12,182 04:56
387 405 TISON JEREMIE 00:46:07 V1M 132 00:14:26 00:13:09 LE DRAPEAU 12,178 04:56
388 918 DELATTRE BRUNO 00:46:08 V2M 46 00:14:27 00:11:37   12,173 04:56
389 224 QUESNEL RENE 00:46:10 V4M 1 00:14:29 00:00:00 FREVENT OLYMPIC CLUB 12,165 04:56
390 220 HENEMAN CHRISTOPHE 00:46:11 V1M 133 00:14:30 00:13:13 Gravelines Triathlon 12,160 04:56
391 637 BECQUET KARINE 00:46:12 V1F 12 00:14:31 00:08:06 PATRIOTES DE GUINES 12,156 04:56
392 347 GRESSIER YANNICK 00:46:12 V1M 134 00:14:31 00:13:14 LE DRAPEAU 12,156 04:56
393 639 BUY JACQUES 00:46:13 V2M 47 00:14:32 00:11:42 PATRIOTES DE GUINES 12,151 04:56
394 486 BERANGER JEAN-CHARLES 00:46:16 V2M 48 00:14:35 00:11:45 AMICALE HOSPITALIERS BOULOGNE 12,138 04:57
395 828 DUCARME LOIC 00:46:20 SEM 159 00:14:39 00:14:39 NON LICENCIE 12,121 04:57
396 285 ROBA VALENTIN 00:46:24 CAM 15 00:14:43 00:08:01 SPORT EVASION DES 2 CAPS 12,103 04:57
397 469 LEGAY EDOUARD 00:46:24 CAM 16 00:14:43 00:08:01 COURIR DANS LE LUMBROIS 12,103 04:57
398 280 HUGOT CYRILLE 00:46:25 V1M 135 00:14:44 00:13:27 NON LICENCIE 12,099 04:58
399 421 PLAYE FRANCOIS 00:46:25 V1M 136 00:14:44 00:13:27 COLEMBERT 12,099 04:58
400 594 GERARD DANIEL 00:46:26 V2M 49 00:14:45 00:11:55 ATHLETISME CLUB OUTREAU 12,095 04:58
401 289 KROKOS FABIEN 00:46:26 SEM 160 00:14:45 00:14:45 NON LICENCIE 12,095 04:58
402 766 GODARD PASCAL 00:46:29 V1M 137 00:14:48 00:13:31 X'TREM TEAM 12,082 04:58
403 167 GUYOT REMI 00:46:30 SEM 161 00:14:49 00:14:49 OPALE TRAIL NATURE 12,077 04:58
404 571 BERNARD ALEXANDRE 00:46:30 SEM 162 00:14:49 00:14:49 ATHLETISME CLUB OUTREAU 12,077 04:58
405 479 GRONIER MICHAEL 00:46:32 V1M 138 00:14:51 00:13:34   12,069 04:58
406 768 CHERMEUX HERVE 00:46:32 V2M 50 00:14:51 00:12:01 O.S. AIRE 12,069 04:58
407 927 CARON BRUNO 00:46:34 V2M 51 00:14:53 00:12:03 NON LICENCIE 12,060 04:59
408 18 NAJMI AICHA 00:46:37 V1F 13 00:14:56 00:08:31 LE DRAPEAU 12,047 04:59
409 413 DUCROQUET MICHEL 00:46:39 V3M 9 00:14:58 00:08:48 COLEMBERT 12,039 04:59
410 818 LEVIS Francois 00:46:40 V2M 52 00:14:59 00:12:09 NON LICENCIE 12,034 04:59
411 351 RENAUX SOPHIE 00:46:41 SEF 13 00:15:00 00:08:16 BLANC NEZ TRIATHLON 12,030 04:59
412 147 BRIDOUX CHRISTINE 00:46:45 V1F 14 00:15:04 00:08:39 SPORT PLUS 12,013 05:00
413 676 BADON EMMANUEL 00:46:46 SEM 163 00:15:05 00:15:05 NON LICENCIE 12,009 05:00
414 505 GARENAUX FRANCOIS 00:46:47 V1M 139 00:15:06 00:13:49 WIMEREUX RUNNING CLUB 12,004 05:00
415 438 BRIDOUX LAETITIA 00:46:51 SEF 14 00:15:10 00:08:26 ARC INTERNATIONAL 11,987 05:00
416 452 LEGRAND JACKY 00:46:51 V1M 140 00:15:10 00:13:53 ARC INTERNATIONAL 11,987 05:00
417 386 DOUCHAIN MARC 00:46:52 SEM 164 00:15:11 00:15:11 NON LICENCIE 11,983 05:00
418 914 BAHEUX JACKIE 00:46:56 V1M 141 00:15:15 00:13:58 NON LICENCIE 11,966 05:01
419 33 DUBREU RICHARD 00:46:57 V1M 142 00:15:16 00:13:59 O.S. AIRE 11,962 05:01
420 241 SEGUIN DIDIER 00:46:57 V2M 53 00:15:16 00:12:26 SPORT PLUS 11,962 05:01
421 680 MARTEL JEAN-MICHEL 00:46:57 V2M 54 00:15:16 00:12:26 NON LICENCIE 11,962 05:01
422 341 MIRGUET PATRICK 00:47:00 V1M 143 00:15:19 00:14:02 AS CAMIERS 11,949 05:01
423 391 BONDUAEUX VIRGINIE 00:47:00 SEF 15 00:15:19 00:08:35 FOULEES LOONOISES 11,949 05:01
424 785 KOCAJ JEAN-JACQUES 00:47:02 SEM 165 00:15:21 00:15:21 LE DRAPEAU 11,940 05:01
425 544 LEVEL EDOUARD 00:47:02 JUM 8 00:15:21 00:12:40 BOULOGNE ATHLETIQUE CLUB 11,940 05:01
426 261 GODART VALERIE 00:47:04 SEF 16 00:15:23 00:08:39 NON LICENCIE 11,932 05:02
427 688 DEVINS MARC 00:47:04 V2M 55 00:15:23 00:12:33   11,932 05:02
428 774 AUGE YANN 00:47:05 SEM 166 00:15:24 00:15:24 NON LICENCIE 11,928 05:02
429 838 GOURDIN FREDERIQUE 00:47:06 V1F 15 00:15:25 00:09:00 NON LICENCIE 11,924 05:02
430 642 COULOMBEL SYLVIE 00:47:06 SEF 17 00:15:25 00:08:41 PATRIOTES DE GUINES 11,924 05:02
431 436 MAGNIER ALEXANDRE 00:47:06 SEM 167 00:15:25 00:15:25 NON LICENCIE 11,924 05:02
432 387 SELINGUE THIERRY 00:47:07 V2M 56 00:15:26 00:12:36 FOULEES LOONOISES 11,919 05:02
433 598 LANGAGNE GAETAN 00:47:11 SEM 168 00:15:30 00:15:30 ATHLETISME CLUB OUTREAU 11,903 05:02
434 235 FOUCAULT PASCAL 00:47:13 V2M 57 00:15:32 00:12:42 CULTURE DANSE ETAPLES 11,894 05:03
435 86 PIONTEK FABRICE 00:47:13 V1M 144 00:15:32 00:14:15   11,894 05:03
436 25 PIDOU HERVE 00:47:14 V2M 58 00:15:33 00:12:43 NON LICENCIE 11,890 05:03
437 79 DELVILLE THIERRY 00:47:17 SEM 169 00:15:36 00:15:36 NON LICENCIE 11,877 05:03
438 832 TERNISIEN SEBASTIEN 00:47:18 SEM 170 00:15:37 00:15:37 NON LICENCIE 11,873 05:03
439 542 MINET CORENTINE 00:47:18 CAF 1 00:15:37 00:00:00 BOULOGNE ATHLETIQUE CLUB 11,873 05:03
440 703 BAILLY JULIEN 00:47:19 SEM 171 00:15:38 00:15:38 SPORT PLUS 11,869 05:03
441 702 BUTEL MARIE 00:47:19 SEF 18 00:15:38 00:08:54 SPORT PLUS 11,869 05:03
442 881 MANSUY JEAN MARIE 00:47:19 SEM 172 00:15:38 00:15:38 NON LICENCIE 11,869 05:03
443 231 RAY ISABELLE 00:47:20 SEF 19 00:15:39 00:08:55 CULTURE DANSE ETAPLES 11,865 05:03
444 42 DHERBECOURT CHRISTOPHE 00:47:21 V2M 59 00:15:40 00:12:50 TRIATHLON CLUB BOULONNAIS 11,861 05:04
445 588 DEMBREMENT STEPHANE 00:47:22 V1M 145 00:15:41 00:14:24 ATHLETISME CLUB OUTREAU 11,856 05:04
446 380 CHARPENTIER CECILE 00:47:24 SEF 20 00:15:43 00:08:59 SPORT EVASION DES 2 CAPS 11,848 05:04
447 862 COUVELARD PERRINE 00:47:29 JUF 1 00:15:48 00:00:00 NON LICENCIE 11,827 05:04
448 876 DELFORGE SABRINA 00:47:29 SEF 21 00:15:48 00:09:04 NON LICENCIE 11,827 05:04
449 875 DESOOMER BENOIT 00:47:29 V1M 146 00:15:48 00:14:31 MOY PARK 11,827 05:04
450 868 BAHEUX ERIC 00:47:32 V1M 147 00:15:51 00:14:34 NON LICENCIE 11,815 05:05
451 907 LANCE FREDDY 00:47:33 SEM 173 00:15:52 00:15:52 NON LICENCIE 11,811 05:05
452 412 DETHOOR DOMINIQUE 00:47:34 V2M 60 00:15:53 00:13:03 COLEMBERT 11,807 05:05
453 366 DUHAMEL THIERRY 00:47:36 V1M 148 00:15:55 00:14:38 LE DRAPEAU 11,798 05:05
454 417 LESOT FREDERIC 00:47:41 V1M 149 00:16:00 00:14:43 COLEMBERT 11,778 05:06
455 398 ROUSSEL THIERRY 00:47:44 V1M 150 00:16:03 00:14:46   11,765 05:06
456 701 LENOT XAVIER 00:47:48 SEM 174 00:16:07 00:16:07 SPORT PLUS 11,749 05:06
457 447 DIERYCK DOMINIQUE 00:47:49 SEM 175 00:16:08 00:16:08 ARC INTERNATIONAL 11,745 05:07
458 81 GADEBLED CHRISTOPHE 00:47:49 V1M 151 00:16:08 00:14:51 NON LICENCIE 11,745 05:07
459 647 GEENS MELANIE 00:47:49 SEF 22 00:16:08 00:09:24 PATRIOTES DE GUINES 11,745 05:07
460 672 DHEM PIERRE 00:47:49 V1M 152 00:16:08 00:14:51 NON LICENCIE 11,745 05:07
461 151 DECOTTE GERARD 00:47:49 V2M 61 00:16:08 00:13:18 SPORT PLUS 11,745 05:07
462 214 ROHART CAROLINE 00:47:49 SEF 23 00:16:08 00:09:24 NON LICENCIE 11,745 05:07
463 49 ZIELONKA FRANCK 00:47:50 V1M 153 00:16:09 00:14:52 NON LICENCIE 11,741 05:07
464 669 DELETOILLE GILLES 00:47:50 SEM 176 00:16:09 00:16:09 NON LICENCIE 11,741 05:07
465 244 WACOGNE PHILIPPE 00:47:50 V2M 62 00:16:09 00:13:19 SPORT PLUS 11,741 05:07
466 155 HIARD ANDRE 00:47:51 V2M 63 00:16:10 00:13:20 SPORT PLUS 11,737 05:07
467 294 LEPRINCE JEROME 00:47:51 SEM 177 00:16:10 00:16:10 PASS-RUNNING 11,737 05:07
468 283 GAVOIS CYRIL 00:47:52 SEM 178 00:16:11 00:16:11 SPORT EVASION DES 2 CAPS 11,733 05:07
469 376 LOUASSE ALEXANDRE 00:47:52 SEM 179 00:16:11 00:16:11 NON LICENCIE 11,733 05:07
470 675 COLIN CHRISTOPHE 00:47:53 V1M 154 00:16:12 00:14:55 NON LICENCIE 11,729 05:07
471 333 LHERMILLIER FREDDY 00:47:56 V3M 10 00:16:15 00:10:05 NON LICENCIE 11,716 05:07
472 332 LHERMILLIER ELIOT 00:47:57 SEM 180 00:16:16 00:16:16 NON LICENCIE 11,712 05:07
473 619 MANCHUELLE STEPHANE 00:47:57 V1M 155 00:16:16 00:14:59 ATHLETIQUE CLUB CAPELLOIS 11,712 05:07
474 508 FONTAINE XAVIER 00:47:57 V2M 64 00:16:16 00:13:26 WIMEREUX RUNNING CLUB 11,712 05:07
475 409 BOULY STEPHANIE 00:47:59 V1F 16 00:16:18 00:09:53 COLEMBERT 11,704 05:08
476 50 LIBERT ERIC 00:47:59 V2M 65 00:16:18 00:13:28 TRIATHLON CLUB BOULONNAIS 11,704 05:08
477 765 LAMARE CATHIE 00:48:00 V1F 17 00:16:19 00:09:54 A.S. MARCK 11,700 05:08
478 606 MAILLARD JEROME 00:48:00 SEM 181 00:16:19 00:16:19 NON LICENCIE 11,700 05:08
479 758 FRANCOIS MICHEL 00:48:05 V1M 156 00:16:24 00:15:07 NON LICENCIE 11,680 05:08
480 662 PETIT JEAN-MARIE 00:48:06 V1M 157 00:16:25 00:15:08 NON LICENCIE 11,676 05:08
481 20 DEBOVE DAVID 00:48:07 V1M 158 00:16:26 00:15:09 C.S. NESLES 11,672 05:08
482 686 VILLETTE FREDERIC 00:48:08 SEM 182 00:16:27 00:16:27 WIMEREUX RUNNING CLUB 11,668 05:09
483 796 DEBOVE CEDRIC 00:48:09 SEM 183 00:16:28 00:16:28 NON LICENCIE 11,664 05:09
484 780 LAVERDURE PASCAL 00:48:09 V2M 66 00:16:28 00:13:38 NON LICENCIE 11,664 05:09
485 815 PACE YVES 00:48:10 V1M 159 00:16:29 00:15:12 NON LICENCIE 11,660 05:09
486 752 GRENON ERIC 00:48:13 V1M 160 00:16:32 00:15:15 NON LICENCIE 11,647 05:09
487 70 TISSERAND XAVIER 00:48:18 V2M 67 00:16:37 00:13:47 NON LICENCIE 11,627 05:10
488 830 DEFER JEAN-LUC 00:48:21 V2M 68 00:16:40 00:13:50 NON LICENCIE 11,615 05:10
489 794 MAQUINGHEN FRANCOIS 00:48:21 V1M 161 00:16:40 00:15:23 CSLG BOULOGNE 11,615 05:10
490 35 HANON LILIANE 00:48:22 V2F 1 00:16:41 00:00:00 LE DRAPEAU 11,611 05:10
491 34 HANON JEAN-PIERRE 00:48:23 V2M 69 00:16:42 00:13:52 LE DRAPEAU 11,607 05:10
492 9 GIGADEN MATHILDE 00:48:24 SEF 24 00:16:43 00:09:59 NON LICENCIE 11,603 05:10
493 449 DOYER AYMERIC 00:48:29 V1M 162 00:16:48 00:15:31 ARC INTERNATIONAL 11,583 05:11
494 528 MOREL WILLY 00:48:29 V1M 163 00:16:48 00:15:31 ATHLETISME CLUB OUTREAU 11,583 05:11
495 640 CARBONNIER SEBASTIEN 00:48:31 V1M 164 00:16:50 00:15:33 PATRIOTES DE GUINES 11,575 05:11
496 666 DELANOY ALEXANDRE 00:48:31 SEM 184 00:16:50 00:16:50 NON LICENCIE 11,575 05:11
497 181 DEGRAVE PATRICK 00:48:32 V2M 70 00:16:51 00:14:01 COURIR A GRAVELINES 11,571 05:11
498 139 MAQUINGHEN CELINE 00:48:32 SEF 25 00:16:51 00:10:07 SAINT MARTIN ATHLETISME 11,571 05:11
499 182 DEMOOR ERIC 00:48:36 V2M 71 00:16:55 00:14:05 COURIR A GRAVELINES 11,556 05:12
500 816 JOUGLET FRANCK 00:48:37 V1M 165 00:16:56 00:15:39 ATSCAF BOULOGNE SUR MER 11,552 05:12
501 344 LEDOUX JULIEN 00:48:37 JUM 9 00:16:56 00:14:15 NON LICENCIE 11,552 05:12
502 848 ROBERT DAVID 00:48:38 V1M 166 00:16:57 00:15:40 NON LICENCIE 11,548 05:12
503 616 FARNWORTH GRAEME 00:48:39 V1M 167 00:16:58 00:15:41 ATHLETIQUE CLUB CAPELLOIS 11,544 05:12
504 435 CAULIER RUDOPLH 00:48:40 V1M 168 00:16:59 00:15:42 FC WIERRE AU BOIS 11,540 05:12
505 357 BOUVILLE MELANIE 00:48:41 SEF 26 00:17:00 00:10:16 BERCK A C O 11,536 05:12
506 110 GUYOT KENNY 00:48:44 SEM 185 00:17:03 00:17:03 NON LICENCIE 11,524 05:12
507 931 TATANI DYLAN 00:48:46 CAM 17 00:17:05 00:10:23 BOULOGNE CANOE KAYAK 11,516 05:13
508 724 LEJOSNE LUC 00:48:46 V2M 72 00:17:05 00:14:15   11,516 05:13
509 293 JACOB CHRISTOPHE 00:48:53 V1M 169 00:17:12 00:15:55 T2 CAP ATHLON 11,489 05:13
510 755 JOSSE KLEMENS 00:48:55 SEM 186 00:17:14 00:17:14 NON LICENCIE 11,481 05:14
511 26 LAHAYE MICHEL 00:48:56 V2M 73 00:17:15 00:14:25 LE DRAPEAU 11,477 05:14
512 689 DEVIN CLEMENT 00:48:56 SEM 187 00:17:15 00:17:15   11,477 05:14
513 287 CODRON STEPHANE 00:48:57 V1M 170 00:17:16 00:15:59 LE DRAPEAU 11,473 05:14
514 152 DULOT ERIC 00:48:57 V2M 74 00:17:16 00:14:26 SPORT PLUS 11,473 05:14
515 677 HERLIN CLEMENT 00:48:58 SEM 188 00:17:17 00:17:17   11,469 05:14
516 240 LUTZ DAVID 00:49:03 SEM 189 00:17:22 00:17:22 SPORT PLUS 11,450 05:14
517 94 BOLLENGIER LAURENT 00:49:04 V1M 171 00:17:23 00:16:06 O.S. AIRE 11,446 05:15
518 790 BERGAMASCO STEPHANE 00:49:05 V1M 172 00:17:24 00:16:07 NON LICENCIE 11,442 05:15
519 326 MERLIN OLIVIER 00:49:05 SEM 190 00:17:24 00:17:24 NON LICENCIE 11,442 05:15
520 420 MAES ETIENNE 00:49:09 V2M 75 00:17:28 00:14:38 COLEMBERT 11,426 05:15
521 313 DUHAMEL VINCENT 00:49:10 V1M 173 00:17:29 00:16:12 NON LICENCIE 11,422 05:15
522 302 HURTELLE GUYLAIN 00:49:11 V1M 174 00:17:30 00:16:13 OPALE COYOTE 11,419 05:15
523 211 COEUGNIET LAURENT 00:49:14 V1M 175 00:17:33 00:16:16 NON LICENCIE 11,407 05:16
524 705 DESCAMPS HERVE 00:49:14 SEM 191 00:17:33 00:17:33 NON LICENCIE 11,407 05:16
525 455 MASSEMIN JEAN-MARIE 00:49:19 V2M 76 00:17:38 00:14:48 ARC INTERNATIONAL 11,388 05:16
526 133 MALFOY JEAN-PIERRE 00:49:22 V3M 11 00:17:41 00:11:31 SAINT MARTIN ATHLETISME 11,376 05:16
527 575 BOURSAULT HELENE 00:49:23 V1F 18 00:17:42 00:11:17 ATHLETISME CLUB OUTREAU 11,372 05:17
528 559 ROGERE KATY 00:49:25 V1F 19 00:17:44 00:11:19 ATHLETISME CLUB OUTREAU 11,365 05:17
529 561 ROGERE STEPHANE 00:49:25 V1M 176 00:17:44 00:16:27 ATHLETISME CLUB OUTREAU 11,365 05:17
530 726 THIEULEUX PIERRE 00:49:28 SEM 192 00:17:47 00:17:47 NON LICENCIE 11,353 05:17
531 483 BRAEMS CHRISTOPHE 00:49:34 V1M 177 00:17:53 00:16:36 NON LICENCIE 11,330 05:18
532 878 COTTIER JOHANN 00:49:34 SEM 193 00:17:53 00:17:53 NON LICENCIE 11,330 05:18
533 291 MAILLARD-BIRE PASCAL 00:49:43 V2M 77 00:18:02 00:15:12 NON LICENCIE 11,296 05:19
534 104 CLABAUT FRANCOIS 00:49:44 SEM 194 00:18:03 00:18:03 NON LICENCIE 11,292 05:19
535 498 HANQUEZ EMMANUEL 00:49:46 V2M 78 00:18:05 00:15:15 SPORT EVASION DES 2 CAPS 11,285 05:19
536 663 DETOUT DYLAN 00:49:46 JUM 10 00:18:05 00:15:24 BOULOGNE CANOE KAYAK 11,285 05:19
537 418 LEVISSE DENIS 00:49:47 V2M 79 00:18:06 00:15:16 COLEMBERT 11,281 05:19
538 36 LENGLET BRUNO 00:49:47 V1M 178 00:18:06 00:16:49 NON LICENCIE 11,281 05:19
539 541 BOUTILLIER PIERRICK 00:49:49 SEM 195 00:18:08 00:18:08 C.S. NESLES 11,273 05:19
540 487 BRIMEUX PIERRE 00:49:49 V3M 12 00:18:08 00:11:58 AMICALE HOSPITALIERS BOULOGNE 11,273 05:19
541 685 ROBERT LUDOVIC 00:49:50 SEM 196 00:18:09 00:18:09   11,270 05:19
542 649 JOLY DAVID 00:49:51 V1M 179 00:18:10 00:16:53 PATRIOTES DE GUINES 11,266 05:20
543 784 KOCAJ ISABELLE 00:49:54 SEF 27 00:18:13 00:11:29 LE DRAPEAU 11,255 05:20
544 255 LEROY WANDRILLE 00:49:56 SEM 197 00:18:15 00:18:15 OPALE TRAIL NATURE 11,247 05:20
545 292 MISEROLLE MATTHIEU 00:50:00 SEM 198 00:18:19 00:18:19 NON LICENCIE 11,232 05:21
546 267 GORECKI FREDDY 00:50:00 V2M 80 00:18:19 00:15:29   11,232 05:21
547 383 DAVID EDITH 00:50:00 V2F 2 00:18:19 00:01:38 CULTURE DANSE ETAPLES 11,232 05:21
548 580 COUSIN SEVERINE 00:50:01 V1F 20 00:18:20 00:11:55 ATHLETISME CLUB OUTREAU 11,228 05:21
549 437 BIERMAN PATRICIA 00:50:02 V2F 3 00:18:21 00:01:40 ARC INTERNATIONAL 11,225 05:21
550 693 MIONNET MODESTINE 00:50:02 SEF 28 00:18:21 00:11:37 TEAM TRAIL 62 11,225 05:21
551 691 HODIQUE MYRIAM 00:50:03 SEF 29 00:18:22 00:11:38 TEAM TRAIL 62 11,221 05:21
552 605 BIGOT MARIE-CHRISTINE 00:50:10 V2F 4 00:18:29 00:01:48 NON LICENCIE 11,195 05:22
553 536 BECUE LUCAS 00:50:11 CAM 18 00:18:30 00:11:48 NON LICENCIE 11,191 05:22
554 901 FAUQUEMBERGUE PHILIPPE 00:50:12 V1M 180 00:18:31 00:17:14 NON LICENCIE 11,187 05:22
555 903 MONTADOR OLIVIER 00:50:13 V1M 181 00:18:32 00:17:15 NON LICENCIE 11,184 05:22
556 657 KORBER CHRISTIAN 00:50:14 V3M 13 00:18:33 00:12:23 SAINT MARTIN ATHLETISME 11,180 05:22
557 401 CAILLEUX PIERRE 00:50:19 V1M 182 00:18:38 00:17:21   11,161 05:23
558 5 MAILLARD BEATRICE 00:50:20 V1F 21 00:18:39 00:12:14 NON LICENCIE 11,158 05:23
559 140 PIHL JOEL 00:50:22 V3M 14 00:18:41 00:12:31 SAINT MARTIN ATHLETISME 11,150 05:23
560 900 BERTIN PASCAL 00:50:23 V3M 15 00:18:42 00:12:32 NON LICENCIE 11,147 05:23
561 327 DUBROMEL CLEMENT 00:50:25 JUM 11 00:18:44 00:16:03 NON LICENCIE 11,139 05:23
562 355 BUISINE SYLVIE 00:50:26 V1F 22 00:18:45 00:12:20 CLUB ATHLE. COUDEKERQUE-B 11,135 05:23
563 128 GOSSELIN JEAN-FRANCOIS 00:50:30 V1M 183 00:18:49 00:17:32 SAINT MARTIN ATHLETISME 11,121 05:24
564 431 MARIQUE PERRINE 00:50:33 CAF 2 00:18:52 00:03:15 COLEMBERT 11,110 05:24
565 472 BAILLY AURELIE 00:50:33 SEF 30 00:18:52 00:12:08 COURIR DANS LE LUMBROIS 11,110 05:24
566 493 JUMETZ REGINE 00:50:35 V2F 5 00:18:54 00:02:13 AMICALE HOSPITALIERS BOULOGNE 11,102 05:24
567 520 LIBERT MARIE-FRANCE 00:50:38 V2F 6 00:18:57 00:02:16 ATHLETISME CLUB OUTREAU 11,092 05:25
568 24 HENEBEL LUC 00:50:38 V1M 184 00:18:57 00:17:40 NON LICENCIE 11,092 05:25
569 570 BECQUET AURELIE 00:50:48 SEF 31 00:19:07 00:12:23 ATHLETISME CLUB OUTREAU 11,055 05:26
570 940 BERTELOOT ANTHONY 00:50:48 V1M 185 00:19:07 00:17:50 NON LICENCIE 11,055 05:26
571 102 ROBART FRANCOIS 00:50:49 V2M 81 00:19:08 00:16:18 C.S. NESLES 11,051 05:26
572 866 SENECHAL NICOLAS 00:50:52 SEM 199 00:19:11 00:19:11 SPORT EVASION DES 2 CAPS 11,041 05:26
573 465 LEPERCQ FLORENT 00:50:53 V2M 82 00:19:12 00:16:22 LE DRAPEAU 11,037 05:26
574 301 LEFRANCOIS OLIVIER 00:50:56 SEM 200 00:19:15 00:19:15 OPALE COYOTE 11,026 05:26
575 653 PLATIAU MARIE 00:50:57 SEF 32 00:19:16 00:12:32 PATRIOTES DE GUINES 11,023 05:27
576 587 DELANNOY AURELIE 00:50:59 SEF 33 00:19:18 00:12:34 ATHLETISME CLUB OUTREAU 11,015 05:27
577 394 VAMBRE SERGE 00:50:59 V2M 83 00:19:18 00:16:28 CULTURE DANSE ETAPLES 11,015 05:27
578 312 FOURMENTIN TONY 00:51:02 SEM 201 00:19:21 00:19:21 NON LICENCIE 11,005 05:27
579 905 NOURTIER GAETAN 00:51:03 CAM 19 00:19:22 00:12:40 CALOTTERIE 11,001 05:27
580 115 DUREUX VINCENT 00:51:04 V1M 186 00:19:23 00:18:06 NON LICENCIE 10,997 05:27
581 54 COUSIN CHRISTOPHE 00:51:04 V1M 187 00:19:23 00:18:06 NON LICENCIE 10,997 05:27
582 399 ROUSSEL MARIE 00:51:07 SEF 34 00:19:26 00:12:42 NON LICENCIE 10,987 05:28
583 286 LASSON NATHALIE 00:51:08 V2F 7 00:19:27 00:02:46 SPORT EVASION DES 2 CAPS 10,983 05:28
584 414 DUSSART MURIEL 00:51:08 V2F 8 00:19:27 00:02:46 COLEMBERT 10,983 05:28
585 898 LABBE TONY 00:51:11 V1M 188 00:19:30 00:18:13 NON LICENCIE 10,972 05:28
586 723 LEJOSNE ALEXANDRE 00:51:12 SEM 202 00:19:31 00:19:31 NON LICENCIE 10,969 05:28
587 177 BARRE BEATRICE 00:51:13 V1F 23 00:19:32 00:13:07 COURIR A GRAVELINES 10,965 05:28
588 468 MAGNIER REGIS 00:51:14 V1M 189 00:19:33 00:18:16 CULTURE DANSE ETAPLES 10,962 05:28
589 426 SORRET PATRICK 00:51:17 V2M 84 00:19:36 00:16:46 COLEMBERT 10,951 05:29
590 532 NOEL JOHAN 00:51:17 SEM 203 00:19:36 00:19:36 ATHLETISME CLUB OUTREAU 10,951 05:29
591 430 MAILLOT FLORENCE 00:51:19 SEF 35 00:19:38 00:12:54 COLEMBERT 10,944 05:29
592 185 LACHEVRE CHRISTINE 00:51:19 V2F 9 00:19:38 00:02:57 COURIR A GRAVELINES 10,944 05:29
593 547 FICHEUX LUCETTE 00:51:20 V2F 10 00:19:39 00:02:58 TOUQUET OPALE ATHLETISME 10,940 05:29
594 427 WALLET DOMINIQUE 00:51:21 V2M 85 00:19:40 00:16:50 COLEMBERT 10,937 05:29
595 251 MALFOY ROMAIN 00:51:23 SEM 204 00:19:42 00:19:42 SAINT MARTIN ATHLETISME 10,930 05:29
596 671 SCHOONHEERE GILBERT 00:51:27 V3M 16 00:19:46 00:13:36 CLUB ATHLE. COUDEKERQUE-B 10,915 05:30
597 863 MAILLOT PIERRE 00:51:28 V2M 86 00:19:47 00:16:57 NON LICENCIE 10,912 05:30
598 791 CARLY VALERIE 00:51:28 V1F 24 00:19:47 00:13:22 BOULOGNE ATHLETIQUE CLUB 10,912 05:30
599 644 ETCHEPARE JEAN-PHILIPPE 00:51:29 SEM 205 00:19:48 00:19:48 PATRIOTES DE GUINES 10,908 05:30
600 871 BREFORT KEVIN 00:51:33 SEM 206 00:19:52 00:19:52 NON LICENCIE 10,894 05:30
601 95 DOURDET FABRICE 00:51:35 V2M 87 00:19:54 00:17:04 NON LICENCIE 10,887 05:31
602 792 FOURNIER FABRICE 00:51:35 V1M 190 00:19:54 00:18:37 NON LICENCIE 10,887 05:31
603 423 ROUSSEL STEPHANE 00:51:35 V2M 88 00:19:54 00:17:04 COLEMBERT 10,887 05:31
604 159 TETARD ISABELLE 00:51:36 V1F 25 00:19:55 00:13:30 SPORT PLUS 10,884 05:31
605 325 MERLIN JULIE 00:51:36 SEF 36 00:19:55 00:13:11 NON LICENCIE 10,884 05:31
606 148 BUTEL DANIEL 00:51:40 V2M 89 00:19:59 00:17:09 SPORT PLUS 10,870 05:31
607 187 LHOMME DANIEL 00:51:46 V3M 17 00:20:05 00:13:55 COURIR A GRAVELINES 10,849 05:32
608 511 DUPUREUR EMMANUEL 00:51:52 V1M 191 00:20:11 00:18:54 WIMEREUX RUNNING CLUB 10,828 05:32
609 519 PARAGE STEPHANE 00:51:53 SEM 207 00:20:12 00:20:12 NON LICENCIE 10,824 05:33
610 425 SERGENT SOPHIE 00:51:57 V1F 26 00:20:16 00:13:51 COLEMBERT 10,810 05:33
611 902 BLARY JEAN-PAUL 00:52:00 V3M 18 00:20:19 00:14:09 NON LICENCIE 10,800 05:33
612 382 DAVID SYLVAIN 00:52:00 V2M 90 00:20:19 00:17:29 CULTURE DANSE ETAPLES 10,800 05:33
613 490 FIEVET-VASSEUR CHRISTELE 00:52:01 V1F 27 00:20:20 00:13:55 AMICALE HOSPITALIERS BOULOGNE 10,797 05:33
614 424 SERGENT LAURENT 00:52:02 V2M 91 00:20:21 00:17:31 COLEMBERT 10,793 05:34
615 118 DELEZENNE CYRIL 00:52:03 SEM 208 00:20:22 00:20:22 NL 10,790 05:34
616 58 GUILLAMET FABIENNE 00:52:05 V1F 28 00:20:24 00:13:59 NON LICENCIE 10,783 05:34
617 495 MASSET FREDERIC 00:52:11 V1M 192 00:20:30 00:19:13 AMICALE HOSPITALIERS BOULOGNE 10,762 05:35
618 270 MAGNE FREDERIC 00:52:14 V2M 92 00:20:33 00:17:43 NON LICENCIE 10,752 05:35
619 665 DELANOY LAURINE 00:52:15 SEF 37 00:20:34 00:13:50 NON LICENCIE 10,748 05:35
620 632 PAINSET CORINNE 00:52:15 V1F 29 00:20:34 00:14:09 NON LICENCIE 10,748 05:35
621 846 DELENCLOS PHILIPPE 00:52:16 V1M 193 00:20:35 00:19:18 NON LICENCIE 10,745 05:35
622 338 LEDOUX THIERRY 00:52:17 V1M 194 00:20:36 00:19:19 NON LICENCIE 10,741 05:35
623 290 BUCHET LAURENCE 00:52:18 SEF 38 00:20:37 00:13:53 CULTURE DANSE ETAPLES 10,738 05:35
624 407 AVISSE SEBASTIEN 00:52:18 SEM 209 00:20:37 00:20:37 COLEMBERT 10,738 05:35
625 745 DUFOUR MAHAUT 00:52:26 SEM 210 00:20:45 00:20:45 NON LICENCIE 10,711 05:36
626 444 DAZIN DANIEL 00:52:32 V3M 19 00:20:51 00:14:41 ARC INTERNATIONAL 10,690 05:37
627 893 BLANPAIN JEAN-PAUL 00:52:33 V2M 93 00:20:52 00:18:02 NON LICENCIE 10,687 05:37
628 667 THOORIS LAURENT 00:52:33 V1M 195 00:20:52 00:19:35   10,687 05:37
629 153 DULOT PASCALINE 00:52:35 V1F 30 00:20:54 00:14:29 SPORT PLUS 10,680 05:37
630 770 COLL NADIA 00:52:37 SEF 39 00:20:56 00:14:12 NON LICENCIE 10,673 05:37
631 533 HEUX JACQUELINE 00:52:37 V1F 31 00:20:56 00:14:31 COLEMBERT 10,673 05:37
632 384 RIGOULET DOROTHEE 00:52:37 SEF 40 00:20:56 00:14:12 NON LICENCIE 10,673 05:37
633 717 LUTZ RAYNALD 00:52:45 V2M 94 00:21:04 00:18:14 NON LICENCIE 10,646 05:38
634 134 CARON LYUBA 00:52:48 V3F 1 00:21:07 00:00:00 SAINT MARTIN ATHLETISME 10,636 05:38
635 628 MARLARD PASCALINE 00:52:49 SEF 41 00:21:08 00:14:24 NON LICENCIE 10,633 05:39
636 416 FATRAS MARIE-ANNE 00:52:57 V1F 32 00:21:16 00:14:51 COLEMBERT 10,606 05:39
637 415 FATRAS FREDERIC 00:52:58 V1M 196 00:21:17 00:20:00 COLEMBERT 10,603 05:40
638 920 TONDELIER FABIEN 00:53:01 SEM 211 00:21:20 00:21:20 NON LICENCIE 10,593 05:40
639 629 BERTHE PATRICK 00:53:02 V2M 95 00:21:21 00:18:31 NON LICENCIE 10,590 05:40
640 250 MALVACHE DOMINIQUE 00:53:04 V1M 197 00:21:23 00:20:06 SAINT MARTIN ATHLETISME 10,583 05:40
641 113 LEPERCQUE YANN 00:53:04 SEM 212 00:21:23 00:21:23 NON LICENCIE 10,583 05:40
642 603 LERICHE PATRICIA 00:53:05 V2F 11 00:21:24 00:04:43 ATHLETISME CLUB OUTREAU 10,580 05:40
643 130 ANDEL CELINE 00:53:06 SEF 42 00:21:25 00:14:41 SAINT MARTIN ATHLETISME 10,576 05:40
644 248 SAINT-GEORGES SYLVIE 00:53:07 V1F 33 00:21:26 00:15:01 NON LICENCIE 10,573 05:40
645 837 LAMIRAND CHRISTOPHE 00:53:09 V1M 198 00:21:28 00:20:11 NON LICENCIE 10,566 05:41
646 759 SAUVAGE BRUNO 00:53:11 V1M 199 00:21:30 00:20:13 NON LICENCIE 10,560 05:41
647 23 MAGNIER BEATRICE 00:53:12 V2F 12 00:21:31 00:04:50 PINK LADIES 10,556 05:41
648 906 GUYOT CHRISTOPHE 00:53:13 V1M 200 00:21:32 00:20:15 CALOTTERIE 10,553 05:41
649 842 LALLEMENT XAVIER 00:53:16 SEM 213 00:21:35 00:21:35 NON LICENCIE 10,543 05:41
650 456 ROLAND BERTRAND 00:53:25 V2M 96 00:21:44 00:18:54 ARC INTERNATIONAL 10,514 05:42
651 583 DEBOVE SANDRINE 00:53:26 V1F 34 00:21:45 00:15:20 ATHLETISME CLUB OUTREAU 10,510 05:43
652 590 DEVIGNE JOCELYNE 00:53:26 V2F 13 00:21:45 00:05:04 ATHLETISME CLUB OUTREAU 10,510 05:43
653 500 CABY SOPHIE 00:53:35 V1F 35 00:21:54 00:15:29 WIMEREUX RUNNING CLUB 10,481 05:43
654 397 LE COZ NATHALIE 00:53:37 V1F 36 00:21:56 00:15:31 NON LICENCIE 10,474 05:44
655 400 SAGNIER ARNAUD 00:53:38 V1M 201 00:21:57 00:20:40 NON LICENCIE 10,471 05:44
656 16 LEBEGUE THERESE 00:53:38 V2F 14 00:21:57 00:05:16 LE DRAPEAU 10,471 05:44
657 696 MARTEL ERIC 00:53:44 V2M 97 00:22:03 00:19:13 TEAM TRAIL 62 10,452 05:44
658 834 HUYGHE DIMITRI 00:53:51 SEM 214 00:22:10 00:22:10 NON LICENCIE 10,429 05:45
659 317 BAILLY ISABELLE 00:53:53 V1F 37 00:22:12 00:15:47 LE DRAPEAU 10,423 05:45
660 454 MELINE NICOLAS 00:53:54 V1M 202 00:22:13 00:20:56 ARC INTERNATIONAL 10,419 05:46
661 453 LEGRAND NATHALIE 00:53:55 V1F 38 00:22:14 00:15:49 ARC INTERNATIONAL 10,416 05:46
662 909 NEGRI PASCALE 00:53:55 V1F 39 00:22:14 00:15:49 NON LICENCIE 10,416 05:46
663 342 BEAUDRAPS PASCAL 00:53:56 V2M 98 00:22:15 00:19:25 NON LICENCIE 10,413 05:46
664 374 LAVIE BETTY 00:53:57 SEF 43 00:22:16 00:15:32 TOUQUET TRAIL NATURE 10,410 05:46
665 892 BREQUEVILLE SAMUEL 00:53:59 V1M 203 00:22:18 00:21:01 TOUQUET OPALE ATHLETISME 10,403 05:46
666 395 VAMBRE MICHELE 00:53:59 V2F 15 00:22:18 00:05:37 CULTURE DANSE ETAPLES 10,403 05:46
667 236 SELLIER DELPHINE 00:54:08 SEF 44 00:22:27 00:15:43 OPALE TRAIL NATURE 10,374 05:47
668 820 ROCHOY MICKAEL 00:54:09 SEM 215 00:22:28 00:22:28 BOULOGNE ATHLETIQUE CLUB 10,371 05:47
669 150 CHOCHOY THIERRY 00:54:18 V2M 99 00:22:37 00:19:47 SPORT PLUS 10,343 05:48
670 797 DEBOVE ROMAIN 00:54:25 CAM 20 00:22:44 00:16:02 NON LICENCIE 10,320 05:49
671 926 FOLLET MANON 00:54:28 JUF 2 00:22:47 00:06:59 NON LICENCIE 10,311 05:49
672 707 PERNIN MARION 00:54:28 JUF 3 00:22:47 00:06:59 NON LICENCIE 10,311 05:49
673 922 HOYER MATHILDE 00:54:29 CAF 3 00:22:48 00:07:11 NON LICENCIE 10,308 05:49
674 476 FEUTRY PATRICK 00:54:30 V1M 204 00:22:49 00:21:32   10,305 05:49
675 646 GARENAUX STEPHANE 00:54:32 V1M 205 00:22:51 00:21:34 PATRIOTES DE GUINES 10,298 05:50
676 477 PERSYN STEPHANE 00:54:33 V2M 100 00:22:52 00:20:02 NON LICENCIE 10,295 05:50
677 106 POURRE PASCAL 00:54:42 V2M 101 00:23:01 00:20:11 NON LICENCIE 10,267 05:51
678 279 GORECKI THEO 00:54:42 CAM 21 00:23:01 00:16:19 NON LICENCIE 10,267 05:51
679 76 DEBAY MARINE 00:54:48 SEF 45 00:23:07 00:16:23 NON LICENCIE 10,248 05:51
680 310 GARENAUX DOMINIQUE 00:54:50 V3M 20 00:23:09 00:16:59 NON LICENCIE 10,242 05:51
681 93 CHARTAUX SUZEL 00:54:50 V1F 40 00:23:09 00:16:44 C.S. NESLES 10,242 05:51
682 47 CRETEL LAURENCE 00:54:50 V1F 41 00:23:09 00:16:44 C.S. NESLES 10,242 05:51
683 370 RIFFARD NADIA 00:54:53 SEF 46 00:23:12 00:16:28   10,233 05:52
684 186 LE GALL CHRISTINE 00:54:55 V2F 16 00:23:14 00:06:33 COURIR A GRAVELINES 10,226 05:52
685 618 LEBON AUDREY 00:54:55 SEF 47 00:23:14 00:16:30 ATHLETIQUE CLUB CAPELLOIS 10,226 05:52
686 363 NAVET LAURENT 00:54:58 V1M 206 00:23:17 00:22:00 NON LICENCIE 10,217 05:52
687 10 ANQUEZ CHRISTOPHE 00:55:01 SEM 216 00:23:20 00:23:20 NON LICENCIE 10,208 05:53
688 865 HALLENNE KARINE 00:55:04 V1F 42 00:23:23 00:16:58 TOUQUET OPALE ATHLETISME 10,199 05:53
689 194 WALSPECK PIERRE 00:55:08 V4M 2 00:23:27 00:08:58 COURIR A GRAVELINES 10,186 05:53
690 202 LE GALL ROGER 00:55:08 V2M 102 00:23:27 00:20:37 COURIR A GRAVELINES 10,186 05:53
691 178 BRISBAERT JEAN LUC 00:55:09 V2M 103 00:23:28 00:20:38 COURIR A GRAVELINES 10,183 05:54
692 443 COLSON JACKY 00:55:13 V3M 21 00:23:32 00:17:22 ARC INTERNATIONAL 10,171 05:54
693 298 MORIN VINCENT 00:55:15 V1M 207 00:23:34 00:22:17 SPORT EVASION DES 2 CAPS 10,165 05:54
694 190 MULLER FABRICE 00:55:17 V1M 208 00:23:36 00:22:19 COURIR A GRAVELINES 10,159 05:54
695 408 BERTIN JOSE 00:55:19 V2M 104 00:23:38 00:20:48 COLEMBERT 10,152 05:55
696 429 DEFACHELLES ANGELIQUE 00:55:20 V1F 43 00:23:39 00:17:14 COLEMBERT 10,149 05:55
697 439 BRUGE GERARD 00:55:20 V3M 22 00:23:39 00:17:29 ARC INTERNATIONAL 10,149 05:55
698 704 BOUCLET FREDERIQUE 00:55:21 SEF 48 00:23:40 00:16:56 SPORT PLUS 10,146 05:55
699 531 NEVEU PAMELA 00:55:22 SEF 49 00:23:41 00:16:57 ATHLETISME CLUB OUTREAU 10,143 05:55
700 222 BUTEL MICHEL 00:55:23 V2M 105 00:23:42 00:20:52 NON LICENCIE 10,140 05:55
701 609 BEAUGRAND GENEVIEVE 00:55:25 V1F 44 00:23:44 00:17:19 ATHLETIQUE CLUB CAPELLOIS 10,134 05:55
702 537 PREMEAU CHRISTINE 00:55:36 V2F 17 00:23:55 00:07:14 LE DRAPEAU 10,101 05:56
703 381 REMBUR VIRGINIE 00:55:37 V2F 18 00:23:56 00:07:15 TOUQUET OPALE ATHLETISME 10,098 05:57
704 143 CLEQUIN RENE 00:55:43 V3M 23 00:24:02 00:17:52 SAINT MARTIN ATHLETISME 10,080 05:57
705 90 PLOUVIN PATRICIA 00:55:45 V2F 19 00:24:04 00:07:23 NON LICENCIE 10,074 05:57
706 268 DEGROOTE MAGGY 00:55:45 SEF 50 00:24:04 00:17:20 NON LICENCIE 10,074 05:57
707 507 DUBRULLE JOELLE 00:55:46 V1F 45 00:24:05 00:17:40 WIMEREUX RUNNING CLUB 10,071 05:57
708 510 HOAREAU FREDERIQUE 00:55:49 V1F 46 00:24:08 00:17:43 WIMEREUX RUNNING CLUB 10,062 05:58
709 742 JOHANNESSON KARL 00:55:50 V1M 209 00:24:09 00:22:52 NON LICENCIE 10,059 05:58
710 504 DUBRULLE FRANCK 00:55:51 V2M 106 00:24:10 00:21:20 WIMEREUX RUNNING CLUB 10,056 05:58
711 887 MOREZ LAURENT 00:55:51 V1M 210 00:24:10 00:22:53 ANDREY ATHLETISME 10,056 05:58
712 91 PLOUVIN LUDIVINE 00:55:59 V1F 47 00:24:18 00:17:53 NON LICENCIE 10,032 05:59
713 496 MINET ROGER 00:56:00 V3M 24 00:24:19 00:18:09 AMICALE HOSPITALIERS BOULOGNE 10,029 05:59
714 845 DUSSART NICOLAS 00:56:05 SEM 217 00:24:24 00:24:24 COLEMBERT 10,014 06:00
715 912 HOLUIGUE VIRGINIE 00:56:23 SEF 51 00:24:42 00:17:58 NON LICENCIE 9,960 06:01
716 263 LANDOUZY SYLVIE 00:56:36 V2F 20 00:24:55 00:08:14 SAINT MARTIN ATHLETISME 9,922 06:03
717 126 LECLERCQ ANNE-MARIE 00:56:37 V3F 2 00:24:56 00:03:49 SAINT MARTIN ATHLETISME 9,919 06:03
718 941 DEVINS CLEMENCE 00:56:44 SEF 52 00:25:03 00:18:19 NON LICENCIE 9,899 06:04
719 934 BAILLIEU CHRISTIAN 00:56:53 V1M 211 00:25:12 00:23:55 NON LICENCIE 9,873 06:05
720 844 THERY MARTINE 00:56:55 V2F 21 00:25:14 00:08:33 NON LICENCIE 9,867 06:05
721 445 DAZIN JACQUELINE 00:56:55 V2F 22 00:25:14 00:08:33 ARC INTERNATIONAL 9,867 06:05
722 843 DEBOVE BEATRICE 00:56:56 V2F 23 00:25:15 00:08:34 NON LICENCIE 9,864 06:05
723 919 BERNABAH KARIM 00:57:16 SEM 218 00:25:35 00:25:35 NON LICENCIE 9,807 06:07
724 711 TISSERAND SEBASTIEN 00:57:17 SEM 219 00:25:36 00:25:36 NON LICENCIE 9,804 06:07
725 509 DURIEZ CLEMENTINE 00:57:26 CAF 4 00:25:45 00:10:08 WIMEREUX RUNNING CLUB 9,778 06:08
726 597 LABRADOR LAURA 00:57:26 SEF 53 00:25:45 00:19:01 ATHLETISME CLUB OUTREAU 9,778 06:08
727 687 BAUDUIN CHRISTIAN 00:57:30 V2M 107 00:25:49 00:22:59 NON LICENCIE 9,767 06:09
728 45 REGNIER KATY 00:57:35 SEF 54 00:25:54 00:19:10 NON LICENCIE 9,753 06:09
729 183 HAYAERT JACQUES 00:57:37 V4M 3 00:25:56 00:11:27 COURIR A GRAVELINES 9,747 06:09
730 234 FOUCAULT CATHERINE 00:57:37 V2F 24 00:25:56 00:09:15 CULTURE DANSE ETAPLES 9,747 06:09
731 506 KERAMBRUN ALEXANDRA 00:57:40 SEF 55 00:25:59 00:19:15 WIMEREUX RUNNING CLUB 9,739 06:10
732 22 MAILLARD NADINE 00:57:42 V3F 3 00:26:01 00:04:54 PINK LADIES 9,733 06:10
733 440 CAINNE ANITA 00:57:46 V2F 25 00:26:05 00:09:24 ARC INTERNATIONAL 9,722 06:10
734 829 MERLIN FREDDY 00:57:57 V1M 212 00:26:16 00:24:59 NON LICENCIE 9,691 06:11
735 664 JUSTIN JOSIANE 00:58:02 V1F 48 00:26:21 00:19:56 SAINT MARTIN ATHLETISME 9,677 06:12
736 921 SEU GIOVANNI 00:58:07 CAM 22 00:26:26 00:19:44 NON LICENCIE 9,663 06:13
737 929 ROUTIER TIFFANIE 00:58:08 CAF 5 00:26:27 00:10:50 BOULOGNE CANOE KAYAK 9,661 06:13
738 46 PATTE FREDERIQUE 00:58:20 V1F 49 00:26:39 00:20:14 A.S. MARCK 9,627 06:14
739 247 SIABAS JEAN-MICHEL 00:58:20 V2M 108 00:26:39 00:23:49 SAINT MARTIN ATHLETISME 9,627 06:14
740 516 LOISEL VINCENT 00:58:20 V1M 213 00:26:39 00:25:22 NON LICENCIE 9,627 06:14
741 309 CORRALES MATHIEU 00:58:26 SEM 220 00:26:45 00:26:45 NON LICENCIE 9,611 06:15
742 419 LEVISSE GUY 00:58:28 V2M 109 00:26:47 00:23:57 COLEMBERT 9,605 06:15
743 553 PALFRAY MARTINE 00:58:33 V2F 26 00:26:52 00:10:11 ATHLETISME CLUB OUTREAU 9,592 06:15
744 560 RUCKEBUSCH SANDRA 00:58:33 V1F 50 00:26:52 00:20:27 ATHLETISME CLUB OUTREAU 9,592 06:15
745 543 ALEXANDRE CHRISTELE 00:58:33 V1F 51 00:26:52 00:20:27 TRIATHLON CLUB BOULONNAIS 9,592 06:15
746 311 FOURMENTIN PHILIPPE 00:58:41 V3M 25 00:27:00 00:20:50 NON LICENCIE 9,570 06:16
747 89 PLOUVIN ARNAUD 00:58:44 V1M 214 00:27:03 00:25:46 NON LICENCIE 9,562 06:16
748 135 MARCOURT LAURENCE 00:58:47 V1F 52 00:27:06 00:20:41 SAINT MARTIN ATHLETISME 9,554 06:17
749 154 GIBERT JEAN-LUC 00:58:56 V2M 110 00:27:15 00:24:25 SPORT PLUS 9,529 06:18
750 160 VERITE HERVE 00:58:56 V2M 111 00:27:15 00:24:25 SPORT PLUS 9,529 06:18
751 670 THORWARTH JAN 00:59:03 V1M 215 00:27:22 00:26:05 NON LICENCIE 9,511 06:19
752 328 VEREECKE CLEMENT 00:59:05 V3M 26 00:27:24 00:21:14 NON LICENCIE 9,505 06:19
753 256 HAMY PHILIPPE 00:59:06 V1M 216 00:27:25 00:26:08   9,503 06:19
754 318 RIQUIER MARIELLE 00:59:08 V2F 27 00:27:27 00:10:46 LE DRAPEAU 9,497 06:19
755 776 BEAUDRAP ISABELLE 00:59:09 SEF 56 00:27:28 00:20:44 NON LICENCIE 9,495 06:19
756 218 LAUDE PERRINE 00:59:11 SEF 57 00:27:30 00:20:46 NON LICENCIE 9,489 06:19
757 375 LEBAS JEAN 00:59:25 V3M 27 00:27:44 00:21:34 CALOTTERIE 9,452 06:21
758 335 HAMY DANIELE 00:59:29 V1F 53 00:27:48 00:21:23 NON LICENCIE 9,441 06:21
759 713 DHIEUX CELINE 00:59:33 SEF 58 00:27:52 00:21:08 NON LICENCIE 9,431 06:22
760 548 MARANTE VALERIE 00:59:33 SEF 59 00:27:52 00:21:08 LE DRAPEAU 9,431 06:22
761 265 PECRIAUX NADINE 00:59:40 V1F 54 00:27:59 00:21:34 NON LICENCIE 9,412 06:22
762 719 MOREAU HELOISE 00:59:41 SEF 60 00:28:00 00:21:16 SPORT PLUS 9,410 06:23
763 710 FIN CORALINE 00:59:46 SEF 61 00:28:05 00:21:21 NON LICENCIE 9,397 06:23
764 725 POTENTIER ALEXANDRE 00:59:50 V1M 217 00:28:09 00:26:52   9,386 06:24
765 200 DUCROCQ AMELIE 00:59:56 SEF 62 00:28:15 00:21:31 NON LICENCIE 9,370 06:24
766 188 LORIDAN CAROLINE 00:59:57 SEF 63 00:28:16 00:21:32 COURIR A GRAVELINES 9,368 06:24
767 191 UBERQUOI LAURENT 01:00:00 V1M 218 00:28:19 00:27:02 COURIR A GRAVELINES 9,360 06:25
768 184 HOUVENAGHEL EMILIE 01:00:00 SEF 64 00:28:19 00:21:35 COURIR A GRAVELINES 9,360 06:25
769 37 SCHULZ PIERRE 01:00:08 V2M 112 00:28:27 00:25:37   9,339 06:25
770 499 VAYSSE SOPHIE 01:00:15 SEF 65 00:28:34 00:21:50 WIMEREUX RUNNING CLUB 9,321 06:26
771 339 TOUGERON STEPHANIE 01:00:33 V1F 55 00:28:52 00:22:27 SAINT MARTIN ATHLETISME 9,275 06:28
772 269 AUDANT MARTINE 01:00:44 V2F 28 00:29:03 00:12:22 JOGGING CLUB HARNESIEN 9,247 06:29
773 716 DUHAMEL AURORE 01:00:58 CAF 6 00:29:17 00:13:40 NON LICENCIE 9,212 06:31
774 540 FINET PATRICIA 01:00:59 V2F 29 00:29:18 00:12:37   9,209 06:31
775 539 FINET ERIC 01:01:00 V1M 219 00:29:19 00:28:02 NON LICENCIE 9,207 06:31
776 795 DEBOVE CAROLINE 01:01:04 SEF 66 00:29:23 00:22:39 NON LICENCIE 9,197 06:31
777 870 LHOMEL MARIELLE 01:01:12 V1F 56 00:29:31 00:23:06 NON LICENCIE 9,176 06:32
778 503 LEMAIRE ANOUCHKA 01:01:14 SEF 67 00:29:33 00:22:49 WIMEREUX RUNNING CLUB 9,171 06:33
779 869 HENQUEZ BERNADETTE 01:01:18 V3F 4 00:29:37 00:08:30 PATRIOTES DE GUINES 9,162 06:33
780 59 SART MALVINA 01:01:20 SEF 68 00:29:39 00:22:55 NON LICENCIE 9,157 06:33
781 60 CLAEYS DAVID 01:01:20 SEM 221 00:29:39 00:29:39 NON LICENCIE 9,157 06:33
782 630 MERLIN JEAN CLAUDE 01:01:23 V2M 113 00:29:42 00:26:52 NON LICENCIE 9,149 06:33
783 822 CARRE MATHILDE 01:01:23 SEF 69 00:29:42 00:22:58 NON LICENCIE 9,149 06:33
784 484 HELYNCK JONATHAN 01:01:26 SEM 222 00:29:45 00:29:45 NON LICENCIE 9,142 06:34
785 232 CHAUSSOY ANNE 01:01:26 V1F 57 00:29:45 00:23:20 SAINT MARTIN ATHLETISME 9,142 06:34
786 331 BORDES CATHERINE 01:01:34 V2F 30 00:29:53 00:13:12 NON LICENCIE 9,122 06:35
787 259 JEAN-BAPTISTE DELPHINE 01:01:39 V1F 58 00:29:58 00:23:33   9,109 06:35
788 390 GAMBLIN MICHAEL 01:02:22 SEM 223 00:30:41 00:30:41 FOULEES LOONOISES 9,005 06:40
789 207 TAILLARDAS FLAVIE 01:02:41 SEF 70 00:31:00 00:24:16 NON LICENCIE 8,959 06:42
790 205 TASSOU ANNE 01:02:50 V1F 59 00:31:09 00:24:44 COURIR A GRAVELINES 8,938 06:43
791 11 LETIZIA WALTER 01:02:51 V2M 114 00:31:10 00:28:20 NON LICENCIE 8,936 06:43
792 273 SUEUR MELANIE 01:02:56 SEF 71 00:31:15 00:24:31 SPORT EVASION DES 2 CAPS 8,924 06:43
793 799 DEBOVE MALIKA 01:03:20 CAF 7 00:31:39 00:16:02 NON LICENCIE 8,867 06:46
794 864 DENIS NORBERT 01:03:30 V3M 28 00:31:49 00:25:39 STADE LONGUENESSOIS 8,844 06:47
795 393 DELATTRE ISABELLE 01:03:38 V2F 31 00:31:57 00:15:16   8,826 06:48
796 879 LECOFFRE CAROLINE 01:03:42 V2F 32 00:32:01 00:15:20 NON LICENCIE 8,816 06:48
797 57 DETRES VIRGINIE 01:03:43 V1F 60 00:32:02 00:25:37 NON LICENCIE 8,814 06:48
798 633 SALMON CHRISTOPHE 01:03:47 V1M 220 00:32:06 00:30:49 NON LICENCIE 8,805 06:49
799 634 SCHUMACHER SANDRA 01:03:55 V1F 61 00:32:14 00:25:49 NON LICENCIE 8,786 06:50
800 697 BIGAND AGATHE 01:04:18 SEF 72 00:32:37 00:25:53 TEAM TRAIL 62 8,734 06:52
801 518 HUDDLESTONE LINDA 01:04:28 SEF 73 00:32:47 00:26:03 NON LICENCIE 8,711 06:53
802 361 BELLET ROLAND 01:04:55 V3M 29 00:33:14 00:27:04 NON LICENCIE 8,651 06:56
803 346 GRESSIER DELPHINE 01:05:40 V1F 62 00:33:59 00:27:34 LE DRAPEAU 8,552 07:01
804 388 VERBRIGGHE BRIGITTE 01:05:41 SEF 74 00:34:00 00:27:16 FOULEES LOONOISES 8,550 07:01
805 164 GOBERT LYDIE 01:06:13 V1F 63 00:34:32 00:28:07 OPALE TRAIL NATURE 8,481 07:04
806 163 GIRAULT VALERIE 01:06:13 V1F 64 00:34:32 00:28:07 OPALE TRAIL NATURE 8,481 07:04
807 165 PERRODIN VERONIQUE 01:06:14 V2F 33 00:34:33 00:17:52 OPALE TRAIL NATURE 8,479 07:05
808 169 SELLIER CHRISTOPHE 01:06:14 SEM 224 00:34:33 00:34:33 OPALE TRAIL NATURE 8,479 07:05
809 174 JONCQUEL JEAN-PAUL 01:06:16 V2M 115 00:34:35 00:31:45 OPALE TRAIL NATURE 8,475 07:05
810 176 MACQUET BRUNO 01:06:16 V2M 116 00:34:35 00:31:45 OPALE TRAIL NATURE 8,475 07:05
811 175 LECOUTRE THIERRY 01:06:17 V2M 117 00:34:36 00:31:46 OPALE TRAIL NATURE 8,473 07:05
812 172 GOBERT BRUNO 01:06:17 V1M 221 00:34:36 00:33:19 OPALE TRAIL NATURE 8,473 07:05
813 371 RIFFARD JEAN 01:06:17 V2M 118 00:34:36 00:31:46 OPALE TRAIL NATURE 8,473 07:05
814 171 FIN FABIEN 01:06:17 V1M 222 00:34:36 00:33:19 OPALE TRAIL NATURE 8,473 07:05
815 173 TETARD CHRISTOPHE 01:06:18 V1M 223 00:34:37 00:33:20 OPALE TRAIL NATURE 8,471 07:05
816 166 DIEUSET ANTHONY 01:06:18 SEM 225 00:34:37 00:34:37 OPALE TRAIL NATURE 8,471 07:05
817 204 STERCKEMAN DELPHINE 01:06:58 SEM 226 00:35:17 00:35:17 COURIR A GRAVELINES 8,386 07:09
818 108 CARDON FRANCK 01:07:37 V1M 224 00:35:56 00:34:39 LE DRAPEAU 8,306 07:13
819 824 QUENUT CHRISTINE 01:07:52 V1F 65 00:36:11 00:29:46 AS CAMIERS 8,275 07:15
820 29 QUENUT MARIE-NOELLE 01:07:52 V1F 66 00:36:11 00:29:46 NON LICENCIE 8,275 07:15
821 239 CORNE FRANCOISE 01:09:36 V2F 34 00:37:55 00:21:14 SPORT PLUS 8,069 07:26
822 360 LARA ANA 01:12:01 V1F 67 00:40:20 00:33:55 NON LICENCIE 7,798 07:42
823 141 PIHL MARIE-BERTHE 01:13:42 V2F 35 00:42:01 00:25:20 SAINT MARTIN ATHLETISME 7,620 07:52
824 673 ROBERT ANGELIQUE 01:13:42 SEF 75 00:42:01 00:35:17   7,620 07:52
825 933 SERGENT CHLOE 01:14:37 CAF 8 00:42:56 00:27:19 NON LICENCIE 7,526 07:58
826 336 MAHIEUX MARYSE 01:14:49 V2F 36 00:43:08 00:26:27 NON LICENCIE 7,506 08:00